Observation data for Endee on 01/18/2019      Previous  Date  Next       Current Mesonet Observations  Soil Data  Daily Summary Page  Observations in Plain Language
KEN1 180600Z 19006KT 06/M05 A2996 RMK A01 T00611046  RH  046%=      5-min Rain = 0
KEN1 180601Z 19006KT 06/M05 A2996 RMK A01 T00611046  RH  046%=      5-min Rain = 0
KEN1 180602Z 19006KT 06/M05 A2996 RMK A01 T00611046  RH  046%=      5-min Rain = 0
KEN1 180603Z 19006KT 06/M05 A2996 RMK A01 T00611046  RH  046%=      5-min Rain = 0
KEN1 180604Z 18006KT 06/M05 A2996 RMK A01 T00601046  RH  047%=      5-min Rain = 0
KEN1 180605Z 18006KT 06/M05 A2996 RMK A01 T00591046  RH  047%=      5-min Rain = 0
KEN1 180606Z 17006KT 06/M05 A2996 RMK A01 T00581046  RH  047%=      5-min Rain = 0
KEN1 180607Z 16006KT 05/M05 A2995 RMK A01 T00541047  RH  048%=      5-min Rain = 0
KEN1 180608Z 16006KT 05/M05 A2995 RMK A01 T00511047  RH  049%=      5-min Rain = 0
KEN1 180609Z 16006KT 05/M05 A2995 RMK A01 T00511046  RH  050%=      5-min Rain = 0
KEN1 180610Z 16006KT 05/M05 A2995 RMK A01 T00511045  RH  050%=      5-min Rain = 0
KEN1 180611Z 15005KT 05/M05 A2995 RMK A01 T00511045  RH  050%=      5-min Rain = 0
KEN1 180612Z 14005KT 05/M05 A2995 RMK A01 T00511045  RH  050%=      5-min Rain = 0
KEN1 180613Z 14005KT 05/M05 A2995 RMK A01 T00511045  RH  050%=      5-min Rain = 0
KEN1 180614Z 14005KT 05/M05 A2995 RMK A01 T00511046  RH  050%=      5-min Rain = 0
KEN1 180615Z 15004KT 05/M05 A2995 RMK A01 T00491047  RH  050%=      5-min Rain = 0
KEN1 180616Z 14004KT 05/M05 A2995 RMK A01 T00471047  RH  051%=      5-min Rain = 0
KEN1 180617Z 15004KT 05/M05 A2995 RMK A01 T00461047  RH  051%=      5-min Rain = 0
KEN1 180618Z 16004KT 05/M05 A2995 RMK A01 T00461046  RH  051%=      5-min Rain = 0
KEN1 180619Z 16004KT 05/M05 A2995 RMK A01 T00461046  RH  051%=      5-min Rain = 0
KEN1 180620Z 16004KT 05/M05 A2995 RMK A01 T00451047  RH  051%=      5-min Rain = 0
KEN1 180621Z 17004KT 04/M05 A2995 RMK A01 T00431047  RH  052%=      5-min Rain = 0
KEN1 180622Z 18004KT 04/M05 A2995 RMK A01 T00441046  RH  052%=      5-min Rain = 0
KEN1 180623Z 18004KT 04/M05 A2995 RMK A01 T00441047  RH  052%=      5-min Rain = 0
KEN1 180624Z 19005KT 04/M05 A2995 RMK A01 T00441046  RH  052%=      5-min Rain = 0
KEN1 180625Z 19005KT 05/M05 A2995 RMK A01 T00451045  RH  052%=      5-min Rain = 0
KEN1 180626Z 19005KT 05/M05 A2995 RMK A01 T00471045  RH  051%=      5-min Rain = 0
KEN1 180627Z 19005KT 05/M05 A2995 RMK A01 T00481045  RH  051%=      5-min Rain = 0
KEN1 180628Z 19005KT 05/M05 A2995 RMK A01 T00501045  RH  051%=      5-min Rain = 0
KEN1 180629Z 20006KT 05/M04 A2995 RMK A01 T00511044  RH  050%=      5-min Rain = 0
KEN1 180630Z 20006KT 05/M04 A2995 RMK A01 T00521043  RH  050%=      5-min Rain = 0
KEN1 180631Z 20005KT 06/M04 A2994 RMK A01 T00551042  RH  050%=      5-min Rain = 0
KEN1 180632Z 20005KT 06/M04 A2994 RMK A01 T00561042  RH  049%=      5-min Rain = 0
KEN1 180633Z 20005KT 06/M04 A2994 RMK A01 T00561042  RH  049%=      5-min Rain = 0
KEN1 180634Z 20005KT 06/M04 A2994 RMK A01 T00571042  RH  049%=      5-min Rain = 0
KEN1 180635Z 21005KT 06/M04 A2994 RMK A01 T00581042  RH  048%=      5-min Rain = 0
KEN1 180636Z 21005KT 06/M04 A2994 RMK A01 T00601042  RH  048%=      5-min Rain = 0
KEN1 180637Z 21005KT 06/M04 A2995 RMK A01 T00601042  RH  048%=      5-min Rain = 0
KEN1 180638Z 21006KT 06/M04 A2995 RMK A01 T00581042  RH  048%=      5-min Rain = 0
KEN1 180639Z 21006KT 06/M04 A2994 RMK A01 T00571043  RH  049%=      5-min Rain = 0
KEN1 180640Z 21007KT 06/M04 A2994 RMK A01 T00551043  RH  049%=      5-min Rain = 0
KEN1 180641Z 21008KT 05/M04 A2994 RMK A01 T00541042  RH  050%=      5-min Rain = 0
KEN1 180642Z 20008KT 05/M04 A2994 RMK A01 T00541041  RH  050%=      5-min Rain = 0
KEN1 180643Z 21008KT 06/M04 A2994 RMK A01 T00561040  RH  050%=      5-min Rain = 0
KEN1 180644Z 21008KT 06/M04 A2994 RMK A01 T00581039  RH  049%=      5-min Rain = 0
KEN1 180645Z 21008KT 06/M04 A2994 RMK A01 T00601039  RH  049%=      5-min Rain = 0
KEN1 180646Z 21009KT 06/M04 A2994 RMK A01 T00611039  RH  049%=      5-min Rain = 0
KEN1 180647Z 21009KT 06/M04 A2994 RMK A01 T00611040  RH  048%=      5-min Rain = 0
KEN1 180648Z 21009KT 06/M04 A2994 RMK A01 T00611040  RH  048%=      5-min Rain = 0
KEN1 180649Z 21009KT 06/M04 A2994 RMK A01 T00601040  RH  049%=      5-min Rain = 0
KEN1 180650Z 22009KT 06/M04 A2994 RMK A01 T00601040  RH  049%=      5-min Rain = 0
KEN1 180651Z 22009KT 06/M04 A2994 RMK A01 T00591039  RH  049%=      5-min Rain = 0
KEN1 180652Z 22009KT 06/M04 A2994 RMK A01 T00611039  RH  049%=      5-min Rain = 0
KEN1 180653Z 22009KT 07/M04 A2994 RMK A01 T00651039  RH  047%=      5-min Rain = 0
KEN1 180654Z 21009KT 07/M04 A2994 RMK A01 T00661039  RH  047%=      5-min Rain = 0
KEN1 180655Z 22009KT 07/M04 A2994 RMK A01 T00671039  RH  047%=      5-min Rain = 0
KEN1 180656Z 21009KT 07/M04 A2994 RMK A01 T00681039  RH  046%=      5-min Rain = 0
KEN1 180657Z 21009KT 07/M04 A2994 RMK A01 T00671039  RH  047%=      5-min Rain = 0
KEN1 180658Z 20009KT 07/M04 A2994 RMK A01 T00661039  RH  047%=      5-min Rain = 0
KEN1 180659Z 20009KT 07/M04 A2994 RMK A01 T00651040  RH  047%=      5-min Rain = 0
KEN1 180700Z 20009KT 06/M04 A2994 RMK A01 T00631040  RH  048%=      5-min Rain = 0
KEN1 180701Z 20008KT 06/M04 A2994 RMK A01 T00591040  RH  049%=      5-min Rain = 0
KEN1 180702Z 20009KT 06/M04 A2994 RMK A01 T00571039  RH  050%=      5-min Rain = 0
KEN1 180703Z 20009KT 06/M04 A2993 RMK A01 T00561039  RH  050%=      5-min Rain = 0
KEN1 180704Z 19008KT 06/M04 A2993 RMK A01 T00571038  RH  050%=      5-min Rain = 0
KEN1 180705Z 20008KT 06/M04 A2993 RMK A01 T00571038  RH  050%=      5-min Rain = 0
KEN1 180706Z 20008KT 06/M04 A2993 RMK A01 T00551039  RH  051%=      5-min Rain = 0
KEN1 180707Z 20008KT 06/M04 A2993 RMK A01 T00551039  RH  051%=      5-min Rain = 0
KEN1 180708Z 21008KT 06/M04 A2993 RMK A01 T00581038  RH  050%=      5-min Rain = 0
KEN1 180709Z 21009KT 06/M04 A2993 RMK A01 T00591037  RH  050%=      5-min Rain = 0
KEN1 180710Z 21009KT 06/M04 A2993 RMK A01 T00611037  RH  050%=      5-min Rain = 0
KEN1 180711Z 22009KT 06/M04 A2993 RMK A01 T00641035  RH  049%=      5-min Rain = 0
KEN1 180712Z 22009KT 07/M03 A2993 RMK A01 T00681034  RH  048%=      5-min Rain = 0
KEN1 180713Z 23010KT 07/M03 A2993 RMK A01 T00711033  RH  048%=      5-min Rain = 0
KEN1 180714Z 23012KT 07/M03 A2993 RMK A01 T00731032  RH  047%=      5-min Rain = 0
KEN1 180715Z 23014KT 08/M03 A2993 RMK A01 T00791030  RH  046%=      5-min Rain = 0
KEN1 180716Z 24014KT 09/M03 A2993 RMK A01 T00871027  RH  045%=      5-min Rain = 0
KEN1 180717Z 24014KT 10/M03 A2993 RMK A01 T00961026  RH  042%=      5-min Rain = 0
KEN1 180718Z 24014KT 10/M03 A2993 RMK A01 T01011027  RH  040%=      5-min Rain = 0
KEN1 180719Z 24015KT 10/M03 A2993 RMK A01 T01041028  RH  040%=      5-min Rain = 0
KEN1 180720Z 24016G22KT 11/M03 A2993 RMK A01 T01061029  RH  039%=      5-min Rain = 0
KEN1 180721Z 24016KT 11/M03 A2993 RMK A01 T01071029  RH  038%=      5-min Rain = 0
KEN1 180722Z 24015KT 11/M03 A2992 RMK A01 T01081030  RH  038%=      5-min Rain = 0
KEN1 180723Z 24014KT 11/M03 A2992 RMK A01 T01081030  RH  038%=      5-min Rain = 0
KEN1 180724Z 23015KT 11/M03 A2992 RMK A01 T01081030  RH  038%=      5-min Rain = 0
KEN1 180725Z 23014KT 11/M03 A2992 RMK A01 T01081030  RH  038%=      5-min Rain = 0
KEN1 180726Z 23014KT 11/M03 A2992 RMK A01 T01081029  RH  038%=      5-min Rain = 0
KEN1 180727Z 23012KT 11/M03 A2992 RMK A01 T01071029  RH  038%=      5-min Rain = 0
KEN1 180728Z 23013KT 11/M03 A2992 RMK A01 T01061029  RH  039%=      5-min Rain = 0
KEN1 180729Z 22012KT 11/M03 A2992 RMK A01 T01051029  RH  039%=      5-min Rain = 0
KEN1 180730Z 22013KT 11/M03 A2991 RMK A01 T01051029  RH  039%=      5-min Rain = 0
KEN1 180731Z 22012KT 11/M03 A2991 RMK A01 T01051029  RH  039%=      5-min Rain = 0
KEN1 180732Z 21013KT 11/M03 A2991 RMK A01 T01051029  RH  039%=      5-min Rain = 0
KEN1 180733Z 22013KT 10/M03 A2991 RMK A01 T01041029  RH  039%=      5-min Rain = 0
KEN1 180734Z 22013KT 10/M03 A2991 RMK A01 T01031029  RH  039%=      5-min Rain = 0
KEN1 180735Z 22012KT 10/M03 A2991 RMK A01 T01031028  RH  040%=      5-min Rain = 0
KEN1 180736Z 21012KT 10/M03 A2991 RMK A01 T01021029  RH  040%=      5-min Rain = 0
KEN1 180737Z 21012KT 10/M03 A2991 RMK A01 T01021028  RH  040%=      5-min Rain = 0
KEN1 180738Z 21011KT 10/M03 A2991 RMK A01 T01021028  RH  040%=      5-min Rain = 0
KEN1 180739Z 21012KT 10/M03 A2991 RMK A01 T01001028  RH  041%=      5-min Rain = 0
KEN1 180740Z 21010KT 10/M03 A2991 RMK A01 T00991028  RH  041%=      5-min Rain = 0
KEN1 180741Z 21011KT 10/M03 A2991 RMK A01 T00981028  RH  041%=      5-min Rain = 0
KEN1 180742Z 21010KT 10/M03 A299 RMK A01 T00971028  RH  042%=      5-min Rain = 0
KEN1 180743Z 21011KT 10/M03 A299 RMK A01 T00961027  RH  042%=      5-min Rain = 0
KEN1 180744Z 22010KT 10/M03 A299 RMK A01 T00961027  RH  042%=      5-min Rain = 0
KEN1 180745Z 22010KT 10/M03 A299 RMK A01 T00951027  RH  042%=      5-min Rain = 0
KEN1 180746Z 22010KT 10/M03 A299 RMK A01 T00951027  RH  042%=      5-min Rain = 0
KEN1 180747Z 22010KT 10/M03 A299 RMK A01 T00951027  RH  042%=      5-min Rain = 0
KEN1 180748Z 22009KT 09/M03 A299 RMK A01 T00941027  RH  042%=      5-min Rain = 0
KEN1 180749Z 22009KT 09/M03 A299 RMK A01 T00931027  RH  043%=      5-min Rain = 0
KEN1 180750Z 22009KT 09/M03 A299 RMK A01 T00931028  RH  043%=      5-min Rain = 0
KEN1 180751Z 22009KT 09/M03 A2989 RMK A01 T00931027  RH  043%=      5-min Rain = 0
KEN1 180752Z 23010KT 09/M03 A2989 RMK A01 T00931027  RH  043%=      5-min Rain = 0
KEN1 180753Z 23011KT 09/M03 A2989 RMK A01 T00921027  RH  043%=      5-min Rain = 0
KEN1 180754Z 23010KT 09/M03 A2989 RMK A01 T00931026  RH  043%=      5-min Rain = 0
KEN1 180755Z 23010KT 09/M03 A2989 RMK A01 T00931026  RH  043%=      5-min Rain = 0
KEN1 180756Z 23010KT 09/M03 A2989 RMK A01 T00931026  RH  043%=      5-min Rain = 0
KEN1 180757Z 23009KT 09/M03 A2989 RMK A01 T00931026  RH  043%=      5-min Rain = 0
KEN1 180758Z 23010KT 09/M03 A2989 RMK A01 T00931026  RH  043%=      5-min Rain = 0
KEN1 180759Z 23011KT 09/M03 A2989 RMK A01 T00921026  RH  043%=      5-min Rain = 0
KEN1 180800Z 23009KT 09/M03 A2989 RMK A01 T00921026  RH  043%=      5-min Rain = 0
KEN1 180801Z 23010KT 09/M03 A2989 RMK A01 T00921026  RH  044%=      5-min Rain = 0
KEN1 180802Z 23010KT 09/M03 A2989 RMK A01 T00911025  RH  044%=      5-min Rain = 0
KEN1 180803Z 23011KT 09/M03 A2988 RMK A01 T00911026  RH  044%=      5-min Rain = 0
KEN1 180804Z 23012KT 09/M03 A2989 RMK A01 T00911026  RH  044%=      5-min Rain = 0
KEN1 180805Z 23011KT 09/M03 A2988 RMK A01 T00921025  RH  044%=      5-min Rain = 0
KEN1 180806Z 23010KT 09/M03 A2988 RMK A01 T00921025  RH  044%=      5-min Rain = 0
KEN1 180807Z 22011KT 09/M03 A2988 RMK A01 T00931025  RH  044%=      5-min Rain = 0
KEN1 180808Z 23011KT 09/M03 A2988 RMK A01 T00921025  RH  044%=      5-min Rain = 0
KEN1 180809Z 23011KT 09/M03 A2988 RMK A01 T00921025  RH  044%=      5-min Rain = 0
KEN1 180810Z 23011KT 09/M03 A2988 RMK A01 T00921025  RH  044%=      5-min Rain = 0
KEN1 180811Z 23013KT 09/M03 A2989 RMK A01 T00921025  RH  044%=      5-min Rain = 0
KEN1 180812Z 23011KT 09/M03 A2988 RMK A01 T00931025  RH  043%=      5-min Rain = 0
KEN1 180813Z 24012KT 09/M03 A2988 RMK A01 T00931025  RH  043%=      5-min Rain = 0
KEN1 180814Z 23012KT 09/M03 A2988 RMK A01 T00931025  RH  043%=      5-min Rain = 0
KEN1 180815Z 24012KT 09/M03 A2988 RMK A01 T00931025  RH  043%=      5-min Rain = 0
KEN1 180816Z 24012KT 09/M03 A2988 RMK A01 T00941026  RH  043%=      5-min Rain = 0
KEN1 180817Z 24011KT 10/M03 A2988 RMK A01 T00951026  RH  043%=      5-min Rain = 0
KEN1 180818Z 24011KT 09/M03 A2988 RMK A01 T00941026  RH  043%=      5-min Rain = 0
KEN1 180819Z 24011KT 10/M03 A2988 RMK A01 T00951025  RH  043%=      5-min Rain = 0
KEN1 180820Z 23012KT 09/M03 A2988 RMK A01 T00941026  RH  043%=      5-min Rain = 0
KEN1 180821Z 23012KT 09/M03 A2988 RMK A01 T00941026  RH  043%=      5-min Rain = 0
KEN1 180822Z 23012KT 09/M03 A2988 RMK A01 T00941026  RH  043%=      5-min Rain = 0
KEN1 180823Z 24010KT 09/M03 A2988 RMK A01 T00931026  RH  043%=      5-min Rain = 0
KEN1 180824Z 24012KT 09/M03 A2988 RMK A01 T00921026  RH  044%=      5-min Rain = 0
KEN1 180825Z 24012KT 09/M03 A2988 RMK A01 T00901026  RH  044%=      5-min Rain = 0
KEN1 180826Z 24011KT 09/M03 A2988 RMK A01 T00911026  RH  044%=      5-min Rain = 0
KEN1 180827Z 24010KT 09/M03 A2988 RMK A01 T00901026  RH  044%=      5-min Rain = 0
KEN1 180828Z 24010KT 09/M03 A2988 RMK A01 T00881026  RH  045%=      5-min Rain = 0
KEN1 180829Z 25010KT 09/M03 A2989 RMK A01 T00871026  RH  045%=      5-min Rain = 0
KEN1 180830Z 25010KT 09/M03 A2989 RMK A01 T00861026  RH  045%=      5-min Rain = 0
KEN1 180831Z 25010KT 09/M03 A2989 RMK A01 T00851026  RH  046%=      5-min Rain = 0
KEN1 180832Z 25010KT 08/M03 A2989 RMK A01 T00841026  RH  046%=      5-min Rain = 0
KEN1 180833Z 25010KT 08/M03 A2989 RMK A01 T00841026  RH  046%=      5-min Rain = 0
KEN1 180834Z 25009KT 08/M03 A2988 RMK A01 T00831026  RH  046%=      5-min Rain = 0
KEN1 180835Z 25009KT 08/M03 A2988 RMK A01 T00831025  RH  046%=      5-min Rain = 0
KEN1 180836Z 25009KT 08/M03 A2988 RMK A01 T00821025  RH  047%=      5-min Rain = 0
KEN1 180837Z 26009KT 08/M03 A2988 RMK A01 T00811025  RH  047%=      5-min Rain = 0
KEN1 180838Z 26009KT 08/M03 A2988 RMK A01 T00811025  RH  047%=      5-min Rain = 0
KEN1 180839Z 25010KT 08/M03 A2988 RMK A01 T00811025  RH  047%=      5-min Rain = 0
KEN1 180840Z 25010KT 08/M03 A2988 RMK A01 T00811025  RH  047%=      5-min Rain = 0
KEN1 180841Z 25010KT 08/M02 A2988 RMK A01 T00821024  RH  047%=      5-min Rain = 0
KEN1 180842Z 25011KT 08/M02 A2988 RMK A01 T00831024  RH  047%=      5-min Rain = 0
KEN1 180843Z 25012KT 08/M02 A2988 RMK A01 T00841024  RH  047%=      5-min Rain = 0
KEN1 180844Z 25012KT 09/M02 A2988 RMK A01 T00861023  RH  046%=      5-min Rain = 0
KEN1 180845Z 24012KT 09/M02 A2988 RMK A01 T00881024  RH  045%=      5-min Rain = 0
KEN1 180846Z 25013KT 09/M02 A2988 RMK A01 T00891024  RH  045%=      5-min Rain = 0
KEN1 180847Z 25013KT 09/M02 A2988 RMK A01 T00901024  RH  045%=      5-min Rain = 0
KEN1 180848Z 25013KT 09/M02 A2988 RMK A01 T00921024  RH  044%=      5-min Rain = 0
KEN1 180849Z 24011KT 09/M02 A2988 RMK A01 T00921024  RH  044%=      5-min Rain = 0
KEN1 180850Z 24013KT 09/M02 A2988 RMK A01 T00921024  RH  044%=      5-min Rain = 0
KEN1 180851Z 24013KT 09/M02 A2988 RMK A01 T00921024  RH  044%=      5-min Rain = 0
KEN1 180852Z 24013KT 09/M02 A2988 RMK A01 T00921024  RH  044%=      5-min Rain = 0
KEN1 180853Z 23013KT 09/M02 A2988 RMK A01 T00921024  RH  044%=      5-min Rain = 0
KEN1 180854Z 23013KT 09/M03 A2988 RMK A01 T00911025  RH  044%=      5-min Rain = 0
KEN1 180855Z 23014KT 09/M03 A2988 RMK A01 T00901025  RH  044%=      5-min Rain = 0
KEN1 180856Z 23013KT 09/M03 A2988 RMK A01 T00901025  RH  044%=      5-min Rain = 0
KEN1 180857Z 24014KT 09/M03 A2988 RMK A01 T00911025  RH  044%=      5-min Rain = 0
KEN1 180858Z 23015KT 09/M03 A2987 RMK A01 T00921025  RH  044%=      5-min Rain = 0
KEN1 180859Z 24015KT 09/M03 A2987 RMK A01 T00931025  RH  044%=      5-min Rain = 0
KEN1 180900Z 23015KT 10/M03 A2987 RMK A01 T00951025  RH  043%=      5-min Rain = 0
KEN1 180901Z 23014KT 10/M03 A2987 RMK A01 T00961025  RH  043%=      5-min Rain = 0
KEN1 180902Z 24015KT 10/M03 A2987 RMK A01 T00951025  RH  043%=      5-min Rain = 0
KEN1 180903Z 24015KT 10/M03 A2987 RMK A01 T00951025  RH  043%=      5-min Rain = 0
KEN1 180904Z 24014KT 10/M03 A2987 RMK A01 T00951026  RH  043%=      5-min Rain = 0
KEN1 180905Z 24013KT 10/M03 A2987 RMK A01 T00951025  RH  043%=      5-min Rain = 0
KEN1 180906Z 24013KT 09/M03 A2987 RMK A01 T00931026  RH  043%=      5-min Rain = 0
KEN1 180907Z 23012KT 09/M03 A2987 RMK A01 T00921026  RH  044%=      5-min Rain = 0
KEN1 180908Z 24012KT 09/M03 A2987 RMK A01 T00901026  RH  044%=      5-min Rain = 0
KEN1 180909Z 24012KT 09/M03 A2987 RMK A01 T00891026  RH  044%=      5-min Rain = 0
KEN1 180910Z 24012KT 09/M03 A2987 RMK A01 T00881026  RH  045%=      5-min Rain = 0
KEN1 180911Z 24012KT 09/M03 A2987 RMK A01 T00881026  RH  045%=      5-min Rain = 0
KEN1 180912Z 24011KT 09/M03 A2987 RMK A01 T00871026  RH  045%=      5-min Rain = 0
KEN1 180913Z 23011KT 09/M03 A2987 RMK A01 T00861026  RH  045%=      5-min Rain = 0
KEN1 180914Z 23011KT 09/M03 A2987 RMK A01 T00851026  RH  045%=      5-min Rain = 0
KEN1 180915Z 23011KT 08/M03 A2987 RMK A01 T00831027  RH  046%=      5-min Rain = 0
KEN1 180916Z 23011KT 08/M03 A2987 RMK A01 T00821027  RH  046%=      5-min Rain = 0
KEN1 180917Z 23011KT 08/M03 A2987 RMK A01 T00811027  RH  047%=      5-min Rain = 0
KEN1 180918Z 23011KT 08/M03 A2987 RMK A01 T00791027  RH  047%=      5-min Rain = 0
KEN1 180919Z 23011KT 08/M03 A2987 RMK A01 T00781027  RH  047%=      5-min Rain = 0
KEN1 180920Z 22011KT 08/M03 A2987 RMK A01 T00761027  RH  048%=      5-min Rain = 0
KEN1 180921Z 22011KT 07/M03 A2987 RMK A01 T00741028  RH  048%=      5-min Rain = 0
KEN1 180922Z 22011KT 07/M03 A2987 RMK A01 T00721028  RH  049%=      5-min Rain = 0
KEN1 180923Z 22010KT 07/M03 A2987 RMK A01 T00711028  RH  050%=      5-min Rain = 0
KEN1 180924Z 22010KT 07/M03 A2987 RMK A01 T00691028  RH  050%=      5-min Rain = 0
KEN1 180925Z 22010KT 07/M03 A2987 RMK A01 T00681028  RH  051%=      5-min Rain = 0
KEN1 180926Z 22010KT 07/M03 A2987 RMK A01 T00661028  RH  051%=      5-min Rain = 0
KEN1 180927Z 22011KT 07/M03 A2987 RMK A01 T00651028  RH  052%=      5-min Rain = 0
KEN1 180928Z 21010KT 07/M03 A2987 RMK A01 T00661027  RH  052%=      5-min Rain = 0
KEN1 180929Z 21011KT 07/M03 A2987 RMK A01 T00661027  RH  051%=      5-min Rain = 0
KEN1 180930Z 21011KT 07/M03 A2986 RMK A01 T00671027  RH  051%=      5-min Rain = 0
KEN1 180931Z 21011KT 07/M03 A2986 RMK A01 T00691027  RH  051%=      5-min Rain = 0
KEN1 180932Z 21010KT 07/M03 A2986 RMK A01 T00691027  RH  050%=      5-min Rain = 0
KEN1 180933Z 21010KT 07/M03 A2986 RMK A01 T00691027  RH  050%=      5-min Rain = 0
KEN1 180934Z 20009KT 07/M03 A2986 RMK A01 T00671027  RH  051%=      5-min Rain = 0
KEN1 180935Z 19009KT 07/M03 A2986 RMK A01 T00651026  RH  052%=      5-min Rain = 0
KEN1 180936Z 19009KT 06/M03 A2986 RMK A01 T00631025  RH  053%=      5-min Rain = 0
KEN1 180937Z 19010KT 06/M03 A2986 RMK A01 T00621025  RH  054%=      5-min Rain = 0
KEN1 180938Z 19011KT 06/M03 A2986 RMK A01 T00601026  RH  054%=      5-min Rain = 0
KEN1 180939Z 19010KT 06/M03 A2986 RMK A01 T00591026  RH  055%=      5-min Rain = 0
KEN1 180940Z 19010KT 06/M03 A2986 RMK A01 T00591026  RH  055%=      5-min Rain = 0
KEN1 180941Z 19010KT 06/M03 A2986 RMK A01 T00591025  RH  055%=      5-min Rain = 0
KEN1 180942Z 19010KT 06/M03 A2986 RMK A01 T00601025  RH  054%=      5-min Rain = 0
KEN1 180943Z 19010KT 06/M03 A2986 RMK A01 T00601025  RH  054%=      5-min Rain = 0
KEN1 180944Z 19009KT 06/M03 A2986 RMK A01 T00601025  RH  054%=      5-min Rain = 0
KEN1 180945Z 19009KT 06/M03 A2986 RMK A01 T00601025  RH  055%=      5-min Rain = 0
KEN1 180946Z 19009KT 06/M03 A2986 RMK A01 T00601025  RH  055%=      5-min Rain = 0
KEN1 180947Z 19009KT 06/M02 A2986 RMK A01 T00601024  RH  055%=      5-min Rain = 0
KEN1 180948Z 19008KT 06/M02 A2986 RMK A01 T00601024  RH  055%=      5-min Rain = 0
KEN1 180949Z 19008KT 06/M02 A2986 RMK A01 T00601024  RH  055%=      5-min Rain = 0
KEN1 180950Z 19008KT 06/M02 A2986 RMK A01 T00601024  RH  055%=      5-min Rain = 0
KEN1 180951Z 19008KT 06/M02 A2986 RMK A01 T00611023  RH  055%=      5-min Rain = 0
KEN1 180952Z 19007KT 06/M02 A2986 RMK A01 T00611023  RH  055%=      5-min Rain = 0
KEN1 180953Z 20007KT 06/M02 A2986 RMK A01 T00601024  RH  055%=      5-min Rain = 0
KEN1 180954Z 20006KT 06/M02 A2986 RMK A01 T00611024  RH  055%=      5-min Rain = 0
KEN1 180955Z 20006KT 06/M02 A2986 RMK A01 T00621024  RH  054%=      5-min Rain = 0
KEN1 180956Z 20006KT 06/M02 A2985 RMK A01 T00641024  RH  053%=      5-min Rain = 0
KEN1 180957Z 20006KT 07/M02 A2985 RMK A01 T00651024  RH  053%=      5-min Rain = 0
KEN1 180958Z 21006KT 07/M02 A2985 RMK A01 T00661024  RH  052%=      5-min Rain = 0
KEN1 180959Z 21006KT 07/M02 A2985 RMK A01 T00681024  RH  052%=      5-min Rain = 0
KEN1 181000Z 20005KT 07/M02 A2985 RMK A01 T00701024  RH  051%=      5-min Rain = 0
KEN1 181001Z 20005KT 07/M03 A2985 RMK A01 T00711025  RH  051%=      5-min Rain = 0
KEN1 181002Z 19004KT 07/M03 A2985 RMK A01 T00701025  RH  051%=      5-min Rain = 0
KEN1 181003Z 19004KT 07/M02 A2985 RMK A01 T00701024  RH  051%=      5-min Rain = 0
KEN1 181004Z 20004KT 07/M03 A2984 RMK A01 T00691025  RH  051%=      5-min Rain = 0
KEN1 181005Z 20004KT 07/M03 A2984 RMK A01 T00701025  RH  051%=      5-min Rain = 0
KEN1 181006Z 20004KT 07/M03 A2984 RMK A01 T00731025  RH  050%=      5-min Rain = 0
KEN1 181007Z 20004KT 08/M03 A2984 RMK A01 T00751025  RH  049%=      5-min Rain = 0
KEN1 181008Z 20005KT 08/M02 A2984 RMK A01 T00761024  RH  049%=      5-min Rain = 0
KEN1 181009Z 20005KT 08/M03 A2984 RMK A01 T00761025  RH  049%=      5-min Rain = 0
KEN1 181010Z 20005KT 08/M02 A2984 RMK A01 T00771024  RH  049%=      5-min Rain = 0
KEN1 181011Z 19004KT 08/M02 A2984 RMK A01 T00771024  RH  049%=      5-min Rain = 0
KEN1 181012Z 20006KT 08/M02 A2984 RMK A01 T00771023  RH  049%=      5-min Rain = 0
KEN1 181013Z 20006KT 08/M02 A2984 RMK A01 T00771023  RH  049%=      5-min Rain = 0
KEN1 181014Z 21006KT 08/M02 A2984 RMK A01 T00781023  RH  049%=      5-min Rain = 0
KEN1 181015Z 21006KT 08/M02 A2984 RMK A01 T00791022  RH  049%=      5-min Rain = 0
KEN1 181016Z 21007KT 08/M02 A2984 RMK A01 T00811023  RH  048%=      5-min Rain = 0
KEN1 181017Z 22008KT 08/M02 A2984 RMK A01 T00821023  RH  048%=      5-min Rain = 0
KEN1 181018Z 22008KT 08/M02 A2983 RMK A01 T00831022  RH  047%=      5-min Rain = 0
KEN1 181019Z 22008KT 08/M02 A2983 RMK A01 T00841022  RH  047%=      5-min Rain = 0
KEN1 181020Z 22009KT 08/M02 A2983 RMK A01 T00841021  RH  047%=      5-min Rain = 0
KEN1 181021Z 22010KT 09/M02 A2983 RMK A01 T00861021  RH  047%=      5-min Rain = 0
KEN1 181022Z 22010KT 09/M02 A2983 RMK A01 T00901021  RH  046%=      5-min Rain = 0
KEN1 181023Z 23012KT 09/M02 A2983 RMK A01 T00931021  RH  045%=      5-min Rain = 0
KEN1 181024Z 23011KT 10/M02 A2983 RMK A01 T00951020  RH  044%=      5-min Rain = 0
KEN1 181025Z 23011KT 10/M02 A2983 RMK A01 T00981020  RH  044%=      5-min Rain = 0
KEN1 181026Z 23012KT 10/M02 A2983 RMK A01 T00991020  RH  043%=      5-min Rain = 0
KEN1 181027Z 23013KT 10/M02 A2983 RMK A01 T01001021  RH  043%=      5-min Rain = 0
KEN1 181028Z 23013KT 10/M02 A2983 RMK A01 T01021021  RH  042%=      5-min Rain = 0
KEN1 181029Z 23012KT 11/M02 A2983 RMK A01 T01051021  RH  041%=      5-min Rain = 0
KEN1 181030Z 23013KT 11/M02 A2983 RMK A01 T01051021  RH  041%=      5-min Rain = 0
KEN1 181031Z 23014KT 11/M02 A2983 RMK A01 T01051021  RH  041%=      5-min Rain = 0
KEN1 181032Z 23015KT 11/M02 A2983 RMK A01 T01051021  RH  041%=      5-min Rain = 0
KEN1 181033Z 24014KT 11/M02 A2983 RMK A01 T01061021  RH  041%=      5-min Rain = 0
KEN1 181034Z 23013KT 11/M02 A2983 RMK A01 T01071021  RH  041%=      5-min Rain = 0
KEN1 181035Z 23013KT 11/M02 A2983 RMK A01 T01071021  RH  041%=      5-min Rain = 0
KEN1 181036Z 23014KT 11/M02 A2982 RMK A01 T01061022  RH  041%=      5-min Rain = 0
KEN1 181037Z 23013KT 11/M02 A2982 RMK A01 T01071022  RH  041%=      5-min Rain = 0
KEN1 181038Z 23012KT 11/M02 A2982 RMK A01 T01061022  RH  041%=      5-min Rain = 0
KEN1 181039Z 23013KT 11/M02 A2982 RMK A01 T01061021  RH  041%=      5-min Rain = 0
KEN1 181040Z 23012KT 11/M02 A2982 RMK A01 T01051022  RH  041%=      5-min Rain = 0
KEN1 181041Z 23012KT 11/M02 A2982 RMK A01 T01061022  RH  041%=      5-min Rain = 0
KEN1 181042Z 23012KT 11/M02 A2981 RMK A01 T01051022  RH  041%=      5-min Rain = 0
KEN1 181043Z 22013KT 10/M02 A2981 RMK A01 T01041021  RH  041%=      5-min Rain = 0
KEN1 181044Z 22012KT 10/M02 A2981 RMK A01 T01031021  RH  042%=      5-min Rain = 0
KEN1 181045Z 22013KT 10/M02 A2981 RMK A01 T01021021  RH  042%=      5-min Rain = 0
KEN1 181046Z 22013KT 10/M02 A2981 RMK A01 T01021021  RH  042%=      5-min Rain = 0
KEN1 181047Z 22012KT 10/M02 A2981 RMK A01 T01021021  RH  042%=      5-min Rain = 0
KEN1 181048Z 22013KT 10/M02 A2981 RMK A01 T01011021  RH  042%=      5-min Rain = 0
KEN1 181049Z 22013KT 10/M02 A2981 RMK A01 T01001021  RH  043%=      5-min Rain = 0
KEN1 181050Z 21012KT 10/M02 A298 RMK A01 T01001021  RH  043%=      5-min Rain = 0
KEN1 181051Z 21012KT 10/M02 A298 RMK A01 T01001020  RH  043%=      5-min Rain = 0
KEN1 181052Z 21012KT 10/M02 A298 RMK A01 T00991020  RH  043%=      5-min Rain = 0
KEN1 181053Z 21012KT 10/M02 A298 RMK A01 T00991020  RH  043%=      5-min Rain = 0
KEN1 181054Z 21011KT 10/M02 A298 RMK A01 T00991020  RH  043%=      5-min Rain = 0
KEN1 181055Z 21011KT 10/M02 A298 RMK A01 T00991020  RH  043%=      5-min Rain = 0
KEN1 181056Z 22012KT 10/M02 A298 RMK A01 T00981020  RH  044%=      5-min Rain = 0
KEN1 181057Z 22010KT 10/M02 A298 RMK A01 T00981021  RH  043%=      5-min Rain = 0
KEN1 181058Z 22008KT 10/M02 A298 RMK A01 T00981020  RH  044%=      5-min Rain = 0
KEN1 181059Z 21007KT 10/M02 A2981 RMK A01 T00961020  RH  044%=      5-min Rain = 0
KEN1 181100Z 21006KT 09/M02 A298 RMK A01 T00941020  RH  045%=      5-min Rain = 0
KEN1 181101Z 21007KT 09/M02 A298 RMK A01 T00911022  RH  045%=      5-min Rain = 0
KEN1 181102Z 22008KT 09/M02 A2981 RMK A01 T00891022  RH  046%=      5-min Rain = 0
KEN1 181103Z 22007KT 09/M02 A2981 RMK A01 T00881022  RH  046%=      5-min Rain = 0
KEN1 181104Z 21009KT 09/M02 A298 RMK A01 T00871022  RH  046%=      5-min Rain = 0
KEN1 181105Z 21009KT 09/M02 A298 RMK A01 T00861022  RH  046%=      5-min Rain = 0
KEN1 181106Z 21009KT 09/M02 A2981 RMK A01 T00851022  RH  047%=      5-min Rain = 0
KEN1 181107Z 21008KT 08/M02 A2981 RMK A01 T00841022  RH  047%=      5-min Rain = 0
KEN1 181108Z 21008KT 08/M02 A2981 RMK A01 T00841022  RH  047%=      5-min Rain = 0
KEN1 181109Z 21008KT 08/M02 A2981 RMK A01 T00831022  RH  048%=      5-min Rain = 0
KEN1 181110Z 21008KT 08/M02 A2981 RMK A01 T00831022  RH  048%=      5-min Rain = 0
KEN1 181111Z 21009KT 08/M02 A2981 RMK A01 T00821021  RH  048%=      5-min Rain = 0
KEN1 181112Z 20009KT 08/M02 A2981 RMK A01 T00811021  RH  048%=      5-min Rain = 0
KEN1 181113Z 20009KT 08/M02 A2981 RMK A01 T00801021  RH  049%=      5-min Rain = 0
KEN1 181114Z 19010KT 08/M02 A2981 RMK A01 T00791021  RH  049%=      5-min Rain = 0
KEN1 181115Z 19011KT 08/M02 A2981 RMK A01 T00771021  RH  050%=      5-min Rain = 0
KEN1 181116Z 19011KT 07/M02 A2981 RMK A01 T00741022  RH  051%=      5-min Rain = 0
KEN1 181117Z 19011KT 07/M02 A2981 RMK A01 T00721022  RH  051%=      5-min Rain = 0
KEN1 181118Z 19011KT 07/M02 A298 RMK A01 T00721021  RH  051%=      5-min Rain = 0
KEN1 181119Z 19011KT 07/M02 A298 RMK A01 T00711022  RH  052%=      5-min Rain = 0
KEN1 181120Z 19011KT 07/M02 A298 RMK A01 T00711021  RH  052%=      5-min Rain = 0
KEN1 181121Z 19011KT 07/M02 A298 RMK A01 T00711022  RH  052%=      5-min Rain = 0
KEN1 181122Z 20010KT 07/M02 A298 RMK A01 T00721022  RH  051%=      5-min Rain = 0
KEN1 181123Z 19009KT 07/M02 A298 RMK A01 T00731022  RH  051%=      5-min Rain = 0
KEN1 181124Z 20010KT 07/M02 A298 RMK A01 T00731022  RH  051%=      5-min Rain = 0
KEN1 181125Z 20010KT 07/M02 A298 RMK A01 T00741021  RH  051%=      5-min Rain = 0
KEN1 181126Z 20009KT 08/M02 A298 RMK A01 T00761020  RH  051%=      5-min Rain = 0
KEN1 181127Z 21009KT 08/M02 A298 RMK A01 T00771020  RH  050%=      5-min Rain = 0
KEN1 181128Z 21009KT 08/M02 A2979 RMK A01 T00771020  RH  050%=      5-min Rain = 0
KEN1 181129Z 21010KT 08/M02 A2979 RMK A01 T00781019  RH  050%=      5-min Rain = 0
KEN1 181130Z 22010KT 08/M02 A2979 RMK A01 T00811017  RH  050%=      5-min Rain = 0
KEN1 181131Z 22011KT 09/M02 A2979 RMK A01 T00851017  RH  049%=      5-min Rain = 0
KEN1 181132Z 23012KT 09/M02 A2979 RMK A01 T00881016  RH  048%=      5-min Rain = 0
KEN1 181133Z 23012KT 09/M01 A2979 RMK A01 T00911014  RH  048%=      5-min Rain = 0
KEN1 181134Z 23015KT 09/M01 A2979 RMK A01 T00941013  RH  047%=      5-min Rain = 0
KEN1 181135Z 24015KT 10/M01 A2979 RMK A01 T00991010  RH  047%=      5-min Rain = 0
KEN1 181136Z 24014KT 10/M01 A2979 RMK A01 T01031010  RH  046%=      5-min Rain = 0
KEN1 181137Z 24016KT 11/M01 A2979 RMK A01 T01051010  RH  045%=      5-min Rain = 0
KEN1 181138Z 24018KT 11/M01 A2979 RMK A01 T01071009  RH  044%=      5-min Rain = 0
KEN1 181139Z 24018KT 11/M01 A2979 RMK A01 T01091010  RH  044%=      5-min Rain = 0
KEN1 181140Z 24018KT 11/M01 A2979 RMK A01 T01101009  RH  043%=      5-min Rain = 0
KEN1 181141Z 24017KT 11/M01 A2979 RMK A01 T01111010  RH  043%=      5-min Rain = 0
KEN1 181142Z 24017KT 11/M01 A2979 RMK A01 T01111009  RH  043%=      5-min Rain = 0
KEN1 181143Z 24019KT 11/M01 A2979 RMK A01 T01111009  RH  043%=      5-min Rain = 0
KEN1 181144Z 24017KT 11/M01 A2979 RMK A01 T01111009  RH  043%=      5-min Rain = 0
KEN1 181145Z 24018KT 11/M01 A2978 RMK A01 T01111008  RH  044%=      5-min Rain = 0
KEN1 181146Z 24018KT 11/M01 A2978 RMK A01 T01101008  RH  044%=      5-min Rain = 0
KEN1 181147Z 24018KT 11/M01 A2978 RMK A01 T01101008  RH  044%=      5-min Rain = 0
KEN1 181148Z 24017KT 11/M01 A2978 RMK A01 T01101008  RH  044%=      5-min Rain = 0
KEN1 181149Z 24015KT 11/M01 A2978 RMK A01 T01101008  RH  044%=      5-min Rain = 0
KEN1 181150Z 23014KT 11/M01 A2978 RMK A01 T01091008  RH  044%=      5-min Rain = 0
KEN1 181151Z 23013KT 11/M01 A2978 RMK A01 T01071009  RH  045%=      5-min Rain = 0
KEN1 181152Z 23013KT 11/M01 A2978 RMK A01 T01061008  RH  045%=      5-min Rain = 0
KEN1 181153Z 23014KT 11/M01 A2978 RMK A01 T01051008  RH  045%=      5-min Rain = 0
KEN1 181154Z 23013G18KT 11/M01 A2978 RMK A01 T01051008  RH  045%=      5-min Rain = 0
KEN1 181155Z 23015KT 11/M01 A2978 RMK A01 T01051008  RH  045%=      5-min Rain = 0
KEN1 181156Z 23013KT 11/M01 A2978 RMK A01 T01051008  RH  045%=      5-min Rain = 0
KEN1 181157Z 23014KT 10/M01 A2978 RMK A01 T01041008  RH  046%=      5-min Rain = 0
KEN1 181158Z 23012KT 10/M01 A2978 RMK A01 T01031008  RH  046%=      5-min Rain = 0
KEN1 181159Z 22014KT 10/M01 A2978 RMK A01 T01031008  RH  046%=      5-min Rain = 0
KEN1 181200Z 23012KT 10/M01 A2978 RMK A01 T01021008  RH  046%=      5-min Rain = 0
KEN1 181201Z 23013KT 10/M01 A2978 RMK A01 T01021008  RH  046%=      5-min Rain = 0
KEN1 181202Z 22012KT 10/M01 A2978 RMK A01 T01001008  RH  047%=      5-min Rain = 0
KEN1 181203Z 22011KT 10/M01 A2978 RMK A01 T00991008  RH  047%=      5-min Rain = 0
KEN1 181204Z 22010KT 10/M01 A2978 RMK A01 T00991008  RH  047%=      5-min Rain = 0
KEN1 181205Z 22010KT 10/M01 A2978 RMK A01 T00971009  RH  048%=      5-min Rain = 0
KEN1 181206Z 22013KT 10/M01 A2978 RMK A01 T00961010  RH  048%=      5-min Rain = 0
KEN1 181207Z 22012KT 10/M01 A2978 RMK A01 T00971010  RH  047%=      5-min Rain = 0
KEN1 181208Z 23014KT 10/M01 A2978 RMK A01 T00971011  RH  047%=      5-min Rain = 0
KEN1 181209Z 23013KT 10/M01 A2977 RMK A01 T00981011  RH  047%=      5-min Rain = 0
KEN1 181210Z 23014KT 10/M01 A2977 RMK A01 T00981011  RH  047%=      5-min Rain = 0
KEN1 181211Z 23013KT 10/M01 A2978 RMK A01 T00991011  RH  046%=      5-min Rain = 0
KEN1 181212Z 23013KT 10/M01 A2978 RMK A01 T00991011  RH  046%=      5-min Rain = 0
KEN1 181213Z 23015KT 10/M01 A2978 RMK A01 T01001010  RH  046%=      5-min Rain = 0
KEN1 181214Z 23015KT 10/M01 A2978 RMK A01 T01011010  RH  046%=      5-min Rain = 0
KEN1 181215Z 23014KT 10/M01 A2978 RMK A01 T01011009  RH  046%=      5-min Rain = 0
KEN1 181216Z 24015KT 10/M01 A2978 RMK A01 T01021009  RH  046%=      5-min Rain = 0
KEN1 181217Z 24016KT 10/M01 A2978 RMK A01 T01031009  RH  046%=      5-min Rain = 0
KEN1 181218Z 23016G21KT 10/M01 A2978 RMK A01 T01041008  RH  046%=      5-min Rain = 0
KEN1 181219Z 23016KT 11/M01 A2978 RMK A01 T01051008  RH  046%=      5-min Rain = 0
KEN1 181220Z 23015KT 11/M01 A2978 RMK A01 T01061007  RH  045%=      5-min Rain = 0
KEN1 181221Z 23014KT 11/M01 A2978 RMK A01 T01071007  RH  045%=      5-min Rain = 0
KEN1 181222Z 23013KT 11/M01 A2978 RMK A01 T01061007  RH  045%=      5-min Rain = 0
KEN1 181223Z 23014KT 11/M01 A2978 RMK A01 T01061007  RH  046%=      5-min Rain = 0
KEN1 181224Z 23014G19KT 11/M01 A2978 RMK A01 T01061006  RH  046%=      5-min Rain = 0
KEN1 181225Z 23014KT 11/M01 A2978 RMK A01 T01061006  RH  046%=      5-min Rain = 0
KEN1 181226Z 23015G20KT 11/M01 A2978 RMK A01 T01071005  RH  046%=      5-min Rain = 0
KEN1 181227Z 24015KT 11/M01 A2978 RMK A01 T01071005  RH  046%=      5-min Rain = 0
KEN1 181228Z 24015KT 11/M00 A2978 RMK A01 T01071004  RH  046%=      5-min Rain = 0
KEN1 181229Z 24016KT 11/M00 A2978 RMK A01 T01071004  RH  046%=      5-min Rain = 0
KEN1 181230Z 24016KT 11/M00 A2978 RMK A01 T01071004  RH  046%=      5-min Rain = 0
KEN1 181231Z 24017KT 11/M00 A2978 RMK A01 T01081004  RH  046%=      5-min Rain = 0
KEN1 181232Z 23016KT 11/M00 A2978 RMK A01 T01081003  RH  046%=      5-min Rain = 0
KEN1 181233Z 24017KT 11/M00 A2978 RMK A01 T01081003  RH  046%=      5-min Rain = 0
KEN1 181234Z 23019KT 11/M00 A2978 RMK A01 T01091003  RH  046%=      5-min Rain = 0
KEN1 181235Z 24019G24KT 11/M00 A2978 RMK A01 T01091003  RH  046%=      5-min Rain = 0
KEN1 181236Z 23017KT 11/M00 A2978 RMK A01 T01091003  RH  046%=      5-min Rain = 0
KEN1 181237Z 24016KT 11/M00 A2978 RMK A01 T01091003  RH  046%=      5-min Rain = 0
KEN1 181238Z 23015KT 11/M00 A2978 RMK A01 T01081003  RH  046%=      5-min Rain = 0
KEN1 181239Z 24016KT 11/M00 A2978 RMK A01 T01071004  RH  046%=      5-min Rain = 0
KEN1 181240Z 23016KT 11/M00 A2978 RMK A01 T01071004  RH  046%=      5-min Rain = 0
KEN1 181241Z 23014KT 11/M00 A2978 RMK A01 T01061004  RH  046%=      5-min Rain = 0
KEN1 181242Z 23013KT 11/M00 A2978 RMK A01 T01071004  RH  046%=      5-min Rain = 0
KEN1 181243Z 23015KT 11/M01 A2977 RMK A01 T01061005  RH  046%=      5-min Rain = 0
KEN1 181244Z 23016KT 11/M01 A2977 RMK A01 T01061005  RH  046%=      5-min Rain = 0
KEN1 181245Z 23013KT 11/M00 A2977 RMK A01 T01061004  RH  046%=      5-min Rain = 0
KEN1 181246Z 23014KT 11/M01 A2977 RMK A01 T01051005  RH  046%=      5-min Rain = 0
KEN1 181247Z 23014KT 11/M01 A2977 RMK A01 T01051005  RH  046%=      5-min Rain = 0
KEN1 181248Z 23017KT 11/M01 A2977 RMK A01 T01051005  RH  047%=      5-min Rain = 0
KEN1 181249Z 24015KT 11/M01 A2977 RMK A01 T01061005  RH  046%=      5-min Rain = 0
KEN1 181250Z 24015KT 11/M01 A2977 RMK A01 T01061005  RH  046%=      5-min Rain = 0
KEN1 181251Z 24015KT 11/M01 A2977 RMK A01 T01061005  RH  046%=      5-min Rain = 0
KEN1 181252Z 24015KT 11/M01 A2978 RMK A01 T01061005  RH  046%=      5-min Rain = 0
KEN1 181253Z 23014KT 11/M01 A2978 RMK A01 T01061005  RH  046%=      5-min Rain = 0
KEN1 181254Z 24016KT 11/M00 A2978 RMK A01 T01051004  RH  047%=      5-min Rain = 0
KEN1 181255Z 24015KT 11/M01 A2978 RMK A01 T01051005  RH  047%=      5-min Rain = 0
KEN1 181256Z 24014KT 11/M01 A2978 RMK A01 T01051005  RH  047%=      5-min Rain = 0
KEN1 181257Z 23015KT 10/M01 A2978 RMK A01 T01041005  RH  047%=      5-min Rain = 0
KEN1 181258Z 24017KT 10/M01 A2978 RMK A01 T01041005  RH  047%=      5-min Rain = 0
KEN1 181259Z 23014KT 10/M01 A2978 RMK A01 T01041005  RH  047%=      5-min Rain = 0
KEN1 181300Z 23014KT 11/M01 A2978 RMK A01 T01051005  RH  047%=      5-min Rain = 0
KEN1 181301Z 23013KT 10/M01 A2978 RMK A01 T01031005  RH  047%=      5-min Rain = 0
KEN1 181302Z 24013KT 10/M01 A2978 RMK A01 T01021005  RH  047%=      5-min Rain = 0
KEN1 181303Z 24014KT 10/M01 A2978 RMK A01 T01021005  RH  047%=      5-min Rain = 0
KEN1 181304Z 24014G19KT 10/M01 A2978 RMK A01 T01021005  RH  047%=      5-min Rain = 0
KEN1 181305Z 24013KT 10/M01 A2978 RMK A01 T01021005  RH  047%=      5-min Rain = 0
KEN1 181306Z 24012KT 10/M01 A2978 RMK A01 T01021005  RH  047%=      5-min Rain = 0
KEN1 181307Z 24014KT 10/M01 A2978 RMK A01 T01011005  RH  048%=      5-min Rain = 0
KEN1 181308Z 23015KT 10/M01 A2978 RMK A01 T01011005  RH  048%=      5-min Rain = 0
KEN1 181309Z 24014KT 10/M01 A2978 RMK A01 T01021005  RH  048%=      5-min Rain = 0
KEN1 181310Z 24014KT 10/M01 A2978 RMK A01 T01021005  RH  047%=      5-min Rain = 0
KEN1 181311Z 24015KT 10/M01 A2978 RMK A01 T01021005  RH  048%=      5-min Rain = 0
KEN1 181312Z 24015KT 10/M01 A2978 RMK A01 T01021005  RH  048%=      5-min Rain = 0
KEN1 181313Z 24016KT 10/M01 A2978 RMK A01 T01021005  RH  048%=      5-min Rain = 0
KEN1 181314Z 24015KT 10/M00 A2978 RMK A01 T01021004  RH  048%=      5-min Rain = 0
KEN1 181315Z 24014KT 10/M00 A2978 RMK A01 T01021004  RH  047%=      5-min Rain = 0
KEN1 181316Z 24014KT 10/M00 A2978 RMK A01 T01021004  RH  048%=      5-min Rain = 0
KEN1 181317Z 24016KT 10/M00 A2978 RMK A01 T01021004  RH  048%=      5-min Rain = 0
KEN1 181318Z 24014KT 10/M00 A2978 RMK A01 T01021004  RH  048%=      5-min Rain = 0
KEN1 181319Z 24014KT 10/M00 A2978 RMK A01 T01021004  RH  048%=      5-min Rain = 0
KEN1 181320Z 24015G20KT 10/M00 A2978 RMK A01 T01011004  RH  048%=      5-min Rain = 0
KEN1 181321Z 24015KT 10/M00 A2978 RMK A01 T01021004  RH  048%=      5-min Rain = 0
KEN1 181322Z 24014KT 10/M00 A2978 RMK A01 T01011004  RH  048%=      5-min Rain = 0
KEN1 181323Z 24014KT 10/M00 A2978 RMK A01 T01011004  RH  048%=      5-min Rain = 0
KEN1 181324Z 24015KT 10/M00 A2978 RMK A01 T01011004  RH  048%=      5-min Rain = 0
KEN1 181325Z 24016KT 10/M00 A2978 RMK A01 T01011004  RH  048%=      5-min Rain = 0
KEN1 181326Z 24014KT 10/M00 A2978 RMK A01 T01011004  RH  048%=      5-min Rain = 0
KEN1 181327Z 24013KT 10/M01 A2978 RMK A01 T01001005  RH  048%=      5-min Rain = 0
KEN1 181328Z 24014KT 10/M01 A2978 RMK A01 T01001005  RH  048%=      5-min Rain = 0
KEN1 181329Z 25013KT 10/M01 A2978 RMK A01 T01001005  RH  048%=      5-min Rain = 0
KEN1 181330Z 25013KT 10/M01 A2978 RMK A01 T01001005  RH  048%=      5-min Rain = 0
KEN1 181331Z 24014KT 10/M00 A2979 RMK A01 T01001004  RH  048%=      5-min Rain = 0
KEN1 181332Z 24012KT 10/M01 A2979 RMK A01 T01001005  RH  048%=      5-min Rain = 0
KEN1 181333Z 25014KT 10/M00 A2979 RMK A01 T00991004  RH  049%=      5-min Rain = 0
KEN1 181334Z 24014KT 10/M00 A2979 RMK A01 T00991004  RH  049%=      5-min Rain = 0
KEN1 181335Z 25014KT 10/M00 A2979 RMK A01 T00991004  RH  049%=      5-min Rain = 0
KEN1 181336Z 25014KT 10/M00 A2979 RMK A01 T00991003  RH  049%=      5-min Rain = 0
KEN1 181337Z 24015KT 10/M00 A2979 RMK A01 T00991003  RH  049%=      5-min Rain = 0
KEN1 181338Z 24016KT 10/M00 A2979 RMK A01 T00991003  RH  049%=      5-min Rain = 0
KEN1 181339Z 24016KT 10/M00 A2979 RMK A01 T01001003  RH  049%=      5-min Rain = 0
KEN1 181340Z 24015KT 10/M00 A2979 RMK A01 T00991003  RH  049%=      5-min Rain = 0
KEN1 181341Z 24015KT 10/M00 A2978 RMK A01 T00991002  RH  049%=      5-min Rain = 0
KEN1 181342Z 24015KT 10/M00 A2978 RMK A01 T00991002  RH  049%=      5-min Rain = 0
KEN1 181343Z 24016KT 10/M00 A2978 RMK A01 T00991002  RH  049%=      5-min Rain = 0
KEN1 181344Z 24016KT 10/M00 A2978 RMK A01 T00991002  RH  049%=      5-min Rain = 0
KEN1 181345Z 24014KT 10/M00 A2978 RMK A01 T00991001  RH  050%=      5-min Rain = 0
KEN1 181346Z 24014KT 10/M00 A2978 RMK A01 T00991001  RH  050%=      5-min Rain = 0
KEN1 181347Z 24016KT 10/M00 A2978 RMK A01 T00981001  RH  050%=      5-min Rain = 0
KEN1 181348Z 24017KT 10/M00 A2978 RMK A01 T00981001  RH  050%=      5-min Rain = 0
KEN1 181349Z 24016KT 10/00 A2978 RMK A01 T009800-0  RH  050%=      5-min Rain = 0
KEN1 181350Z 24017KT 10/M00 A2978 RMK A01 T00981001  RH  050%=      5-min Rain = 0
KEN1 181351Z 23017KT 10/M00 A2978 RMK A01 T00981001  RH  050%=      5-min Rain = 0
KEN1 181352Z 24015KT 10/00 A2978 RMK A01 T009900-0  RH  050%=      5-min Rain = 0
KEN1 181353Z 23015KT 10/00 A2978 RMK A01 T009800-0  RH  050%=      5-min Rain = 0
KEN1 181354Z 24015KT 10/00 A2978 RMK A01 T009800-0  RH  051%=      5-min Rain = 0
KEN1 181355Z 24014KT 10/00 A2978 RMK A01 T009700-0  RH  051%=      5-min Rain = 0
KEN1 181356Z 24014KT 10/00 A2978 RMK A01 T009700-0  RH  051%=      5-min Rain = 0
KEN1 181357Z 24014KT 10/00 A2978 RMK A01 T009700-0  RH  051%=      5-min Rain = 0
KEN1 181358Z 24014KT 10/00 A2978 RMK A01 T00970000  RH  051%=      5-min Rain = 0
KEN1 181359Z 24016KT 10/00 A2978 RMK A01 T00970000  RH  051%=      5-min Rain = 0
KEN1 181400Z 24015KT 10/00 A2978 RMK A01 T00970000  RH  051%=      5-min Rain = 0
KEN1 181401Z 23015KT 10/00 A2978 RMK A01 T00970000  RH  051%=      5-min Rain = 0
KEN1 181402Z 24016KT 10/00 A2978 RMK A01 T00970000  RH  051%=      5-min Rain = 0
KEN1 181403Z 24016KT 10/00 A2978 RMK A01 T00970001  RH  051%=      5-min Rain = 0
KEN1 181404Z 24015KT 10/00 A2978 RMK A01 T00970001  RH  051%=      5-min Rain = 0
KEN1 181405Z 24015KT 10/00 A2978 RMK A01 T00960001  RH  051%=      5-min Rain = 0
KEN1 181406Z 24015KT 10/00 A2978 RMK A01 T00960001  RH  051%=      5-min Rain = 0
KEN1 181407Z 24015KT 10/00 A2978 RMK A01 T00970001  RH  051%=      5-min Rain = 0
KEN1 181408Z 24015KT 10/00 A2978 RMK A01 T00970001  RH  051%=      5-min Rain = 0
KEN1 181409Z 24015KT 10/00 A2978 RMK A01 T00970001  RH  051%=      5-min Rain = 0
KEN1 181410Z 24013KT 10/00 A2978 RMK A01 T00970002  RH  051%=      5-min Rain = 0
KEN1 181411Z 24013KT 10/00 A2978 RMK A01 T00970002  RH  052%=      5-min Rain = 0
KEN1 181412Z 23015KT 10/00 A2978 RMK A01 T00960002  RH  052%=      5-min Rain = 0
KEN1 181413Z 23015KT 10/00 A2978 RMK A01 T00960002  RH  052%=      5-min Rain = 0
KEN1 181414Z 24014KT 10/00 A2978 RMK A01 T00970002  RH  052%=      5-min Rain = 0
KEN1 181415Z 24013KT 10/00 A2978 RMK A01 T00970003  RH  052%=      5-min Rain = 0
KEN1 181416Z 24014KT 10/00 A2978 RMK A01 T00970003  RH  052%=      5-min Rain = 0
KEN1 181417Z 24015KT 10/00 A2978 RMK A01 T00980003  RH  052%=      5-min Rain = 0
KEN1 181418Z 24015KT 10/00 A2978 RMK A01 T00980003  RH  052%=      5-min Rain = 0
KEN1 181419Z 24015G21KT 10/00 A2978 RMK A01 T00980003  RH  052%=      5-min Rain = 0
KEN1 181420Z 24015KT 10/00 A2977 RMK A01 T00980004  RH  052%=      5-min Rain = 0
KEN1 181421Z 24014KT 10/01 A2977 RMK A01 T00990005  RH  052%=      5-min Rain = 0
KEN1 181422Z 24017KT 10/01 A2978 RMK A01 T00990006  RH  052%=      5-min Rain = 0
KEN1 181423Z 25016G21KT 10/01 A2978 RMK A01 T01010007  RH  052%=      5-min Rain = 0
KEN1 181424Z 25017G22KT 10/01 A2978 RMK A01 T01010008  RH  052%=      5-min Rain = 0
KEN1 181425Z 25018KT 10/01 A2978 RMK A01 T01020009  RH  052%=      5-min Rain = 0
KEN1 181426Z 25018KT 10/01 A2978 RMK A01 T01030010  RH  052%=      5-min Rain = 0
KEN1 181427Z 25016KT 10/01 A2978 RMK A01 T01040010  RH  052%=      5-min Rain = 0
KEN1 181428Z 25018KT 10/01 A2978 RMK A01 T01040011  RH  052%=      5-min Rain = 0
KEN1 181429Z 25014KT 10/01 A2978 RMK A01 T01040011  RH  053%=      5-min Rain = 0
KEN1 181430Z 25013KT 10/01 A2979 RMK A01 T01040011  RH  053%=      5-min Rain = 0
KEN1 181431Z 25016G21KT 10/01 A2979 RMK A01 T01030011  RH  053%=      5-min Rain = 0
KEN1 181432Z 25016KT 10/01 A2979 RMK A01 T01040012  RH  053%=      5-min Rain = 0
KEN1 181433Z 26016KT 10/01 A2979 RMK A01 T01040011  RH  053%=      5-min Rain = 0
KEN1 181434Z 26015KT 11/01 A2979 RMK A01 T01050011  RH  052%=      5-min Rain = 0
KEN1 181435Z 26015KT 11/01 A2979 RMK A01 T01050012  RH  053%=      5-min Rain = 0
KEN1 181436Z 26016G21KT 11/01 A2979 RMK A01 T01050012  RH  053%=      5-min Rain = 0
KEN1 181437Z 25019KT 11/01 A2979 RMK A01 T01050011  RH  052%=      5-min Rain = 0
KEN1 181438Z 25016KT 11/01 A2979 RMK A01 T01050011  RH  052%=      5-min Rain = 0
KEN1 181439Z 25014KT 11/01 A2979 RMK A01 T01050011  RH  052%=      5-min Rain = 0
KEN1 181440Z 25015KT 11/01 A2979 RMK A01 T01050011  RH  052%=      5-min Rain = 0
KEN1 181441Z 25015KT 10/01 A2979 RMK A01 T01040011  RH  052%=      5-min Rain = 0
KEN1 181442Z 25013KT 10/01 A2979 RMK A01 T01040010  RH  052%=      5-min Rain = 0
KEN1 181443Z 25015KT 10/01 A2979 RMK A01 T01040010  RH  052%=      5-min Rain = 0
KEN1 181444Z 25013KT 10/01 A2979 RMK A01 T01040010  RH  052%=      5-min Rain = 0
KEN1 181445Z 25013KT 10/01 A2979 RMK A01 T01040011  RH  052%=      5-min Rain = 0
KEN1 181446Z 25013KT 10/01 A2979 RMK A01 T01040011  RH  053%=      5-min Rain = 0
KEN1 181447Z 25016KT 10/01 A2979 RMK A01 T01040012  RH  053%=      5-min Rain = 0
KEN1 181448Z 25014G19KT 10/01 A2979 RMK A01 T01040012  RH  053%=      5-min Rain = 0
KEN1 181449Z 25015KT 10/01 A2978 RMK A01 T01040012  RH  053%=      5-min Rain = 0
KEN1 181450Z 25015G21KT 10/01 A2978 RMK A01 T01040012  RH  053%=      5-min Rain = 0
KEN1 181451Z 25017G22KT 11/01 A2978 RMK A01 T01050013  RH  053%=      5-min Rain = 0
KEN1 181452Z 25018KT 11/01 A2978 RMK A01 T01050014  RH  053%=      5-min Rain = 0
KEN1 181453Z 25020KT 11/01 A2978 RMK A01 T01060014  RH  053%=      5-min Rain = 0
KEN1 181454Z 25017KT 11/02 A2978 RMK A01 T01070016  RH  053%=      5-min Rain = 0
KEN1 181455Z 25014G19KT 11/02 A2978 RMK A01 T01080016  RH  053%=      5-min Rain = 0
KEN1 181456Z 25018KT 11/02 A2978 RMK A01 T01070016  RH  053%=      5-min Rain = 0
KEN1 181457Z 25021KT 11/02 A2978 RMK A01 T01070016  RH  053%=      5-min Rain = 0
KEN1 181458Z 25022KT 11/02 A2978 RMK A01 T01080016  RH  053%=      5-min Rain = 0
KEN1 181459Z 25018KT 11/02 A2978 RMK A01 T01090016  RH  053%=      5-min Rain = 0
KEN1 181500Z 25017KT 11/02 A2978 RMK A01 T01090016  RH  053%=      5-min Rain = 0
KEN1 181501Z 25018KT 11/02 A2978 RMK A01 T01090016  RH  053%=      5-min Rain = 0
KEN1 181502Z 25017KT 11/02 A2977 RMK A01 T01080017  RH  053%=      5-min Rain = 0
KEN1 181503Z 25017KT 11/02 A2977 RMK A01 T01080017  RH  053%=      5-min Rain = 0
KEN1 181504Z 25017KT 11/02 A2977 RMK A01 T01080017  RH  053%=      5-min Rain = 0
KEN1 181505Z 25019KT 11/02 A2977 RMK A01 T01080017  RH  054%=      5-min Rain = 0
KEN1 181506Z 25020KT 11/02 A2977 RMK A01 T01080018  RH  054%=      5-min Rain = 0
KEN1 181507Z 25022G29KT 11/02 A2977 RMK A01 T01080019  RH  054%=      5-min Rain = 0
KEN1 181508Z 26021G28KT 11/02 A2977 RMK A01 T01090020  RH  054%=      5-min Rain = 0
KEN1 181509Z 25026KT 11/02 A2977 RMK A01 T01090021  RH  055%=      5-min Rain = 0
KEN1 181510Z 26022G27KT 11/02 A2977 RMK A01 T01100021  RH  054%=      5-min Rain = 0
KEN1 181511Z 26021G26KT 11/02 A2977 RMK A01 T01100021  RH  054%=      5-min Rain = 0
KEN1 181512Z 26020G25KT 11/02 A2977 RMK A01 T01100022  RH  054%=      5-min Rain = 0
KEN1 181513Z 26018KT 11/02 A2977 RMK A01 T01100022  RH  055%=      5-min Rain = 0
KEN1 181514Z 26021KT 11/02 A2977 RMK A01 T01100022  RH  055%=      5-min Rain = 0
KEN1 181515Z 26021KT 11/02 A2977 RMK A01 T01100022  RH  055%=      5-min Rain = 0
KEN1 181516Z 25020G25KT 11/02 A2977 RMK A01 T01100023  RH  055%=      5-min Rain = 0
KEN1 181517Z 26021KT 11/02 A2977 RMK A01 T01100023  RH  055%=      5-min Rain = 0
KEN1 181518Z 26020KT 11/02 A2977 RMK A01 T01100023  RH  055%=      5-min Rain = 0
KEN1 181519Z 26017KT 11/02 A2977 RMK A01 T01100023  RH  055%=      5-min Rain = 0
KEN1 181520Z 26017KT 11/02 A2977 RMK A01 T01090023  RH  055%=      5-min Rain = 0
KEN1 181521Z 26016KT 11/02 A2977 RMK A01 T01080023  RH  056%=      5-min Rain = 0
KEN1 181522Z 26015KT 11/02 A2977 RMK A01 T01080023  RH  056%=      5-min Rain = 0
KEN1 181523Z 25019KT 11/02 A2977 RMK A01 T01080023  RH  056%=      5-min Rain = 0
KEN1 181524Z 25019KT 11/02 A2977 RMK A01 T01080023  RH  056%=      5-min Rain = 0
KEN1 181525Z 26018KT 11/02 A2977 RMK A01 T01080023  RH  056%=      5-min Rain = 0
KEN1 181526Z 26018KT 11/02 A2977 RMK A01 T01080023  RH  056%=      5-min Rain = 0
KEN1 181527Z 26018KT 11/02 A2977 RMK A01 T01090024  RH  056%=      5-min Rain = 0
KEN1 181528Z 26019KT 11/02 A2977 RMK A01 T01090024  RH  056%=      5-min Rain = 0
KEN1 181529Z 26017KT 11/03 A2977 RMK A01 T01090025  RH  056%=      5-min Rain = 0
KEN1 181530Z 26019G24KT 11/03 A2977 RMK A01 T01100025  RH  056%=      5-min Rain = 0
KEN1 181531Z 26022KT 11/03 A2977 RMK A01 T01100026  RH  056%=      5-min Rain = 0
KEN1 181532Z 26022KT 11/03 A2977 RMK A01 T01100026  RH  056%=      5-min Rain = 0
KEN1 181533Z 26021KT 11/03 A2977 RMK A01 T01110026  RH  056%=      5-min Rain = 0
KEN1 181534Z 26022KT 11/03 A2977 RMK A01 T01120026  RH  056%=      5-min Rain = 0
KEN1 181535Z 26019KT 11/03 A2977 RMK A01 T01110026  RH  056%=      5-min Rain = 0
KEN1 181536Z 26016KT 11/03 A2977 RMK A01 T01110027  RH  056%=      5-min Rain = 0
KEN1 181537Z 26019KT 11/03 A2977 RMK A01 T01110027  RH  056%=      5-min Rain = 0
KEN1 181538Z 25019G24KT 11/03 A2977 RMK A01 T01120027  RH  056%=      5-min Rain = 0
KEN1 181539Z 25017KT 11/03 A2977 RMK A01 T01120027  RH  056%=      5-min Rain = 0
KEN1 181540Z 25016G21KT 11/03 A2976 RMK A01 T01120027  RH  056%=      5-min Rain = 0
KEN1 181541Z 25019KT 11/03 A2976 RMK A01 T01130027  RH  056%=      5-min Rain = 0
KEN1 181542Z 25017KT 11/03 A2976 RMK A01 T01130027  RH  055%=      5-min Rain = 0
KEN1 181543Z 25017KT 11/03 A2976 RMK A01 T01130027  RH  055%=      5-min Rain = 0
KEN1 181544Z 25019KT 11/03 A2976 RMK A01 T01130027  RH  055%=      5-min Rain = 0
KEN1 181545Z 25018G23KT 11/03 A2976 RMK A01 T01140027  RH  055%=      5-min Rain = 0
KEN1 181546Z 25021KT 12/03 A2976 RMK A01 T01150027  RH  055%=      5-min Rain = 0
KEN1 181547Z 26022KT 12/03 A2976 RMK A01 T01160027  RH  054%=      5-min Rain = 0
KEN1 181548Z 26021KT 12/03 A2976 RMK A01 T01180027  RH  054%=      5-min Rain = 0
KEN1 181549Z 25020G27KT 12/03 A2976 RMK A01 T01210028  RH  053%=      5-min Rain = 0
KEN1 181550Z 25025KT 13/03 A2975 RMK A01 T01250028  RH  052%=      5-min Rain = 0
KEN1 181551Z 26024G29KT 13/03 A2976 RMK A01 T01290029  RH  051%=      5-min Rain = 0
KEN1 181552Z 26025KT 13/03 A2976 RMK A01 T01310028  RH  050%=      5-min Rain = 0
KEN1 181553Z 26031G37KT 13/03 A2976 RMK A01 T01310026  RH  049%=      5-min Rain = 0
KEN1 181554Z 26029KT 13/02 A2976 RMK A01 T01290023  RH  048%=      5-min Rain = 0
KEN1 181555Z 26025G32KT 13/02 A2976 RMK A01 T01280022  RH  049%=      5-min Rain = 0
KEN1 181556Z 26030G37KT 13/02 A2976 RMK A01 T01270022  RH  049%=      5-min Rain = 0
KEN1 181557Z 26026G34KT 13/02 A2976 RMK A01 T01260021  RH  049%=      5-min Rain = 0
KEN1 181558Z 26024G29KT 13/02 A2975 RMK A01 T01250022  RH  049%=      5-min Rain = 0
KEN1 181559Z 26031G37KT 13/02 A2975 RMK A01 T01260022  RH  049%=      5-min Rain = 0
KEN1 181600Z 26025G31KT 13/02 A2975 RMK A01 T01270023  RH  049%=      5-min Rain = 0
KEN1 181601Z 26028G34KT 13/02 A2975 RMK A01 T01280024  RH  049%=      5-min Rain = 0
KEN1 181602Z 26029G34KT 13/02 A2975 RMK A01 T01280023  RH  049%=      5-min Rain = 0
KEN1 181603Z 26030G36KT 13/02 A2975 RMK A01 T01280023  RH  049%=      5-min Rain = 0
KEN1 181604Z 26026KT 13/02 A2975 RMK A01 T01270024  RH  050%=      5-min Rain = 0
KEN1 181605Z 25032G39KT 13/02 A2975 RMK A01 T01270024  RH  050%=      5-min Rain = 0
KEN1 181606Z 26029G37KT 13/02 A2975 RMK A01 T01250024  RH  050%=      5-min Rain = 0
KEN1 181607Z 26031G39KT 12/02 A2976 RMK A01 T01230024  RH  051%=      5-min Rain = 0
KEN1 181608Z 26030G36KT 12/02 A2976 RMK A01 T01210023  RH  051%=      5-min Rain = 0
KEN1 181609Z 26026KT 12/02 A2976 RMK A01 T01200024  RH  052%=      5-min Rain = 0
KEN1 181610Z 27029KT 12/02 A2976 RMK A01 T01190024  RH  052%=      5-min Rain = 0
KEN1 181611Z 26027G33KT 12/02 A2976 RMK A01 T01210024  RH  052%=      5-min Rain = 0
KEN1 181612Z 27025KT 12/03 A2976 RMK A01 T01230025  RH  051%=      5-min Rain = 0
KEN1 181613Z 27028KT 12/03 A2976 RMK A01 T01240025  RH  051%=      5-min Rain = 0
KEN1 181614Z 27024G31KT 13/03 A2976 RMK A01 T01250025  RH  050%=      5-min Rain = 0
KEN1 181615Z 26023KT 13/03 A2975 RMK A01 T01260026  RH  050%=      5-min Rain = 0
KEN1 181616Z 26028KT 13/03 A2975 RMK A01 T01270025  RH  050%=      5-min Rain = 0
KEN1 181617Z 26028KT 13/02 A2975 RMK A01 T01270024  RH  050%=      5-min Rain = 0
KEN1 181618Z 27027KT 13/02 A2976 RMK A01 T01270024  RH  050%=      5-min Rain = 0
KEN1 181619Z 27024KT 13/02 A2976 RMK A01 T01270024  RH  050%=      5-min Rain = 0
KEN1 181620Z 27026G32KT 13/03 A2976 RMK A01 T01290025  RH  049%=      5-min Rain = 0
KEN1 181621Z 26025KT 13/02 A2976 RMK A01 T01290024  RH  049%=      5-min Rain = 0
KEN1 181622Z 26026G32KT 13/02 A2975 RMK A01 T01290024  RH  049%=      5-min Rain = 0
KEN1 181623Z 26030G35KT 13/02 A2975 RMK A01 T01290022  RH  048%=      5-min Rain = 0
KEN1 181624Z 26028G33KT 13/02 A2975 RMK A01 T01290021  RH  048%=      5-min Rain = 0
KEN1 181625Z 26029KT 13/02 A2975 RMK A01 T01300020  RH  047%=      5-min Rain = 0
KEN1 181626Z 26031KT 13/02 A2975 RMK A01 T01300020  RH  047%=      5-min Rain = 0
KEN1 181627Z 26028KT 13/02 A2975 RMK A01 T01300020  RH  047%=      5-min Rain = 0
KEN1 181628Z 26028G33KT 13/02 A2975 RMK A01 T01310020  RH  047%=      5-min Rain = 0
KEN1 181629Z 26027G34KT 13/02 A2975 RMK A01 T01320020  RH  046%=      5-min Rain = 0
KEN1 181630Z 26029KT 13/02 A2974 RMK A01 T01330019  RH  046%=      5-min Rain = 0
KEN1 181631Z 26026KT 13/02 A2974 RMK A01 T01330019  RH  046%=      5-min Rain = 0
KEN1 181632Z 26027G33KT 13/02 A2974 RMK A01 T01330019  RH  046%=      5-min Rain = 0
KEN1 181633Z 26027KT 13/02 A2974 RMK A01 T01340019  RH  046%=      5-min Rain = 0
KEN1 181634Z 25027KT 13/02 A2974 RMK A01 T01340019  RH  046%=      5-min Rain = 0
KEN1 181635Z 26029KT 14/02 A2974 RMK A01 T01350019  RH  045%=      5-min Rain = 0
KEN1 181636Z 25027G35KT 14/02 A2974 RMK A01 T01350018  RH  045%=      5-min Rain = 0
KEN1 181637Z 26025KT 14/02 A2974 RMK A01 T01360017  RH  044%=      5-min Rain = 0
KEN1 181638Z 26023G29KT 14/02 A2974 RMK A01 T01370018  RH  044%=      5-min Rain = 0
KEN1 181639Z 25026G32KT 14/02 A2973 RMK A01 T01380018  RH  044%=      5-min Rain = 0
KEN1 181640Z 25024G29KT 14/02 A2973 RMK A01 T01380017  RH  044%=      5-min Rain = 0
KEN1 181641Z 25023G28KT 14/02 A2973 RMK A01 T01380017  RH  044%=      5-min Rain = 0
KEN1 181642Z 25023KT 14/02 A2973 RMK A01 T01390015  RH  043%=      5-min Rain = 0
KEN1 181643Z 25027G32KT 14/01 A2973 RMK A01 T01390013  RH  042%=      5-min Rain = 0
KEN1 181644Z 26028G35KT 14/01 A2973 RMK A01 T01400012  RH  042%=      5-min Rain = 0
KEN1 181645Z 26028G35KT 14/01 A2973 RMK A01 T01400011  RH  041%=      5-min Rain = 0
KEN1 181646Z 26029KT 14/01 A2973 RMK A01 T01400010  RH  041%=      5-min Rain = 0
KEN1 181647Z 26029KT 14/01 A2973 RMK A01 T01390010  RH  041%=      5-min Rain = 0
KEN1 181648Z 26030KT 14/01 A2973 RMK A01 T01400009  RH  041%=      5-min Rain = 0
KEN1 181649Z 26029KT 14/01 A2973 RMK A01 T01400009  RH  041%=      5-min Rain = 0
KEN1 181650Z 27032G38KT 14/01 A2973 RMK A01 T01410009  RH  041%=      5-min Rain = 0
KEN1 181651Z 26027G32KT 14/01 A2973 RMK A01 T01410008  RH  040%=      5-min Rain = 0
KEN1 181652Z 26030G35KT 14/01 A2973 RMK A01 T01420009  RH  040%=      5-min Rain = 0
KEN1 181653Z 26031G36KT 14/01 A2973 RMK A01 T01420008  RH  040%=      5-min Rain = 0
KEN1 181654Z 26027G33KT 14/01 A2973 RMK A01 T01420008  RH  040%=      5-min Rain = 0
KEN1 181655Z 27029G34KT 14/01 A2973 RMK A01 T01440011  RH  040%=      5-min Rain = 0
KEN1 181656Z 27026G33KT 14/01 A2973 RMK A01 T01440010  RH  040%=      5-min Rain = 0
KEN1 181657Z 26032KT 15/01 A2973 RMK A01 T01450011  RH  040%=      5-min Rain = 0
KEN1 181658Z 26031KT 14/01 A2973 RMK A01 T01440009  RH  040%=      5-min Rain = 0
KEN1 181659Z 26029G37KT 15/01 A2973 RMK A01 T01450009  RH  040%=      5-min Rain = 0
KEN1 181700Z 26030G36KT 15/01 A2974 RMK A01 T01450008  RH  039%=      5-min Rain = 0
KEN1 181701Z 27029KT 15/01 A2974 RMK A01 T01450009  RH  040%=      5-min Rain = 0
KEN1 181702Z 26027KT 15/01 A2974 RMK A01 T01450009  RH  039%=      5-min Rain = 0
KEN1 181703Z 27024G30KT 15/01 A2974 RMK A01 T01470010  RH  039%=      5-min Rain = 0
KEN1 181704Z 26026G32KT 15/01 A2974 RMK A01 T01500009  RH  038%=      5-min Rain = 0
KEN1 181705Z 26028G33KT 15/01 A2974 RMK A01 T01500006  RH  038%=      5-min Rain = 0
KEN1 181706Z 27030G38KT 15/01 A2974 RMK A01 T01500005  RH  037%=      5-min Rain = 0
KEN1 181707Z 26031KT 15/01 A2974 RMK A01 T01490005  RH  037%=      5-min Rain = 0
KEN1 181708Z 26028G33KT 15/01 A2974 RMK A01 T01480005  RH  038%=      5-min Rain = 0
KEN1 181709Z 26031G37KT 15/01 A2974 RMK A01 T01490006  RH  038%=      5-min Rain = 0
KEN1 181710Z 26030G35KT 15/01 A2973 RMK A01 T01490006  RH  038%=      5-min Rain = 0
KEN1 181711Z 27029KT 15/01 A2974 RMK A01 T01500006  RH  038%=      5-min Rain = 0
KEN1 181712Z 26026G33KT 15/01 A2973 RMK A01 T01500006  RH  037%=      5-min Rain = 0
KEN1 181713Z 27029G34KT 15/01 A2973 RMK A01 T01510006  RH  037%=      5-min Rain = 0
KEN1 181714Z 26028G36KT 15/01 A2973 RMK A01 T01520006  RH  037%=      5-min Rain = 0
KEN1 181715Z 26032G37KT 15/00 A2973 RMK A01 T01520003  RH  036%=      5-min Rain = 0
KEN1 181716Z 27028G34KT 15/00 A2973 RMK A01 T01500001  RH  036%=      5-min Rain = 0
KEN1 181717Z 27028KT 15/00 A2973 RMK A01 T01480002  RH  037%=      5-min Rain = 0
KEN1 181718Z 26027G33KT 15/00 A2973 RMK A01 T01480003  RH  037%=      5-min Rain = 0
KEN1 181719Z 26033G39KT 15/00 A2973 RMK A01 T01500001  RH  036%=      5-min Rain = 0
KEN1 181720Z 26030G37KT 15/M00 A2973 RMK A01 T01501001  RH  036%=      5-min Rain = 0
KEN1 181721Z 26030G35KT 15/00 A2973 RMK A01 T01500001  RH  036%=      5-min Rain = 0
KEN1 181722Z 26035G40KT 15/00 A2973 RMK A01 T01500002  RH  036%=      5-min Rain = 0
KEN1 181723Z 27033G39KT 15/00 A2973 RMK A01 T01500001  RH  036%=      5-min Rain = 0
KEN1 181724Z 27031G38KT 15/00 A2973 RMK A01 T01500002  RH  036%=      5-min Rain = 0
KEN1 181725Z 27031KT 15/00 A2973 RMK A01 T01510002  RH  036%=      5-min Rain = 0
KEN1 181726Z 27030G37KT 15/00 A2973 RMK A01 T01520002  RH  036%=      5-min Rain = 0
KEN1 181727Z 27024G30KT 15/00 A2972 RMK A01 T01530003  RH  036%=      5-min Rain = 0
KEN1 181728Z 26027G34KT 16/00 A2972 RMK A01 T01570004  RH  036%=      5-min Rain = 0
KEN1 181729Z 26030KT 16/00 A2973 RMK A01 T01580003  RH  035%=      5-min Rain = 0
KEN1 181730Z 27034KT 16/00 A2973 RMK A01 T01570001  RH  035%=      5-min Rain = 0
KEN1 181731Z 26033G39KT 16/00 A2973 RMK A01 T01550001  RH  035%=      5-min Rain = 0
KEN1 181732Z 25032KT 16/M00 A2972 RMK A01 T01551003  RH  034%=      5-min Rain = 0
KEN1 181733Z 26029KT 15/M01 A2972 RMK A01 T01541006  RH  033%=      5-min Rain = 0
KEN1 181734Z 26027KT 16/M00 A2972 RMK A01 T01561002  RH  034%=      5-min Rain = 0
KEN1 181735Z 26030G35KT 16/M00 A2972 RMK A01 T01581002  RH  034%=      5-min Rain = 0
KEN1 181736Z 27030KT 16/M01 A2972 RMK A01 T01591011  RH  031%=      5-min Rain = 0
KEN1 181737Z 27031G37KT 16/M02 A2972 RMK A01 T01571019  RH  030%=      5-min Rain = 0
KEN1 181738Z 27026KT 16/M02 A2972 RMK A01 T01561023  RH  029%=      5-min Rain = 0
KEN1 181739Z 26029G34KT 16/M02 A2972 RMK A01 T01561020  RH  030%=      5-min Rain = 0
KEN1 181740Z 25029G34KT 16/M01 A2971 RMK A01 T01561014  RH  031%=      5-min Rain = 0
KEN1 181741Z 26027G33KT 16/M01 A2972 RMK A01 T01581010  RH  032%=      5-min Rain = 0
KEN1 181742Z 27030KT 16/M01 A2972 RMK A01 T01601012  RH  031%=      5-min Rain = 0
KEN1 181743Z 27027G32KT 16/M01 A2972 RMK A01 T01591012  RH  031%=      5-min Rain = 0
KEN1 181744Z 27030G38KT 16/M01 A2972 RMK A01 T01601009  RH  031%=      5-min Rain = 0
KEN1 181745Z 26029G36KT 16/M01 A2972 RMK A01 T01601010  RH  031%=      5-min Rain = 0
KEN1 181746Z 26030G36KT 16/M01 A2972 RMK A01 T01591009  RH  032%=      5-min Rain = 0
KEN1 181747Z 26030KT 16/M01 A2972 RMK A01 T01581009  RH  032%=      5-min Rain = 0
KEN1 181748Z 25030G35KT 16/M01 A2972 RMK A01 T01581011  RH  031%=      5-min Rain = 0
KEN1 181749Z 26033G39KT 16/M01 A2972 RMK A01 T01571013  RH  031%=      5-min Rain = 0
KEN1 181750Z 26033G40KT 16/M02 A2972 RMK A01 T01561015  RH  031%=      5-min Rain = 0
KEN1 181751Z 26029KT 15/M01 A2972 RMK A01 T01541012  RH  032%=      5-min Rain = 0
KEN1 181752Z 27028G35KT 15/M01 A2972 RMK A01 T01541011  RH  032%=      5-min Rain = 0
KEN1 181753Z 27028KT 15/M01 A2972 RMK A01 T01511012  RH  033%=      5-min Rain = 0
KEN1 181754Z 27026KT 15/M01 A2972 RMK A01 T01491011  RH  033%=      5-min Rain = 0
KEN1 181755Z 26029G34KT 15/M01 A2972 RMK A01 T01481012  RH  033%=      5-min Rain = 0
KEN1 181756Z 27030G35KT 15/M01 A2972 RMK A01 T01461014  RH  033%=      5-min Rain = 0
KEN1 181757Z 26029G35KT 15/M01 A2972 RMK A01 T01471009  RH  034%=      5-min Rain = 0
KEN1 181758Z 27031KT 15/M01 A2972 RMK A01 T01491009  RH  034%=      5-min Rain = 0
KEN1 181759Z 26028G33KT 15/M01 A2971 RMK A01 T01461012  RH  034%=      5-min Rain = 0
KEN1 181800Z 25028G33KT 14/M01 A2971 RMK A01 T01431013  RH  034%=      5-min Rain = 0
KEN1 181801Z 25026G31KT 14/M01 A2971 RMK A01 T01411012  RH  035%=      5-min Rain = 0
KEN1 181802Z 26024KT 14/M01 A2971 RMK A01 T01401012  RH  035%=      5-min Rain = 0
KEN1 181803Z 25030G41KT 14/M01 A297 RMK A01 T01431010  RH  035%=      5-min Rain = 0
KEN1 181804Z 26032G38KT 14/M01 A2971 RMK A01 T01441009  RH  035%=      5-min Rain = 0
KEN1 181805Z 26029G34KT 14/M01 A2971 RMK A01 T01431008  RH  035%=      5-min Rain = 0
KEN1 181806Z 26028G33KT 14/M01 A297 RMK A01 T01431008  RH  035%=      5-min Rain = 0
KEN1 181807Z 26032KT 14/M01 A297 RMK A01 T01431008  RH  036%=      5-min Rain = 0
KEN1 181808Z 26028KT 14/M01 A2971 RMK A01 T01421007  RH  036%=      5-min Rain = 0
KEN1 181809Z 25028G36KT 14/M01 A297 RMK A01 T01421005  RH  036%=      5-min Rain = 0
KEN1 181810Z 26026G31KT 14/M01 A297 RMK A01 T01421006  RH  036%=      5-min Rain = 0
KEN1 181811Z 26026KT 14/M01 A297 RMK A01 T01411006  RH  036%=      5-min Rain = 0
KEN1 181812Z 25032KT 14/M01 A2971 RMK A01 T01411008  RH  036%=      5-min Rain = 0
KEN1 181813Z 26028G37KT 14/M01 A2971 RMK A01 T01401009  RH  036%=      5-min Rain = 0
KEN1 181814Z 26031G36KT 14/M01 A2971 RMK A01 T01401007  RH  036%=      5-min Rain = 0
KEN1 181815Z 26030KT 14/M01 A297 RMK A01 T01401006  RH  037%=      5-min Rain = 0
KEN1 181816Z 25027KT 14/M01 A297 RMK A01 T01391005  RH  037%=      5-min Rain = 0
KEN1 181817Z 25027G34KT 14/M01 A297 RMK A01 T01411006  RH  037%=      5-min Rain = 0
KEN1 181818Z 26031G37KT 14/M01 A297 RMK A01 T01421005  RH  036%=      5-min Rain = 0
KEN1 181819Z 26029KT 14/M01 A297 RMK A01 T01421005  RH  036%=      5-min Rain = 0
KEN1 181820Z 26025G30KT 14/M00 A297 RMK A01 T01431003  RH  037%=      5-min Rain = 0
KEN1 181821Z 25029G34KT 15/M00 A2969 RMK A01 T01461001  RH  037%=      5-min Rain = 0
KEN1 181822Z 25027G34KT 15/M00 A2969 RMK A01 T01471002  RH  036%=      5-min Rain = 0
KEN1 181823Z 25026KT 15/M00 A2969 RMK A01 T01471003  RH  036%=      5-min Rain = 0
KEN1 181824Z 25027G32KT 15/M00 A2969 RMK A01 T01471002  RH  036%=      5-min Rain = 0
KEN1 181825Z 25026KT 15/M00 A2969 RMK A01 T01491001  RH  036%=      5-min Rain = 0
KEN1 181826Z 26024KT 15/M00 A2969 RMK A01 T01501001  RH  036%=      5-min Rain = 0
KEN1 181827Z 26026G33KT 15/M00 A2969 RMK A01 T01531001  RH  035%=      5-min Rain = 0
KEN1 181828Z 26029KT 15/M01 A2969 RMK A01 T01531005  RH  034%=      5-min Rain = 0
KEN1 181829Z 25027KT 15/M01 A2969 RMK A01 T01531005  RH  034%=      5-min Rain = 0
KEN1 181830Z 25028G35KT 15/M01 A2969 RMK A01 T01531006  RH  034%=      5-min Rain = 0
KEN1 181831Z 25024G30KT 15/M01 A2969 RMK A01 T01541007  RH  033%=      5-min Rain = 0
KEN1 181832Z 25028G33KT 16/M01 A2968 RMK A01 T01551009  RH  032%=      5-min Rain = 0
KEN1 181833Z 26026G31KT 16/M01 A2968 RMK A01 T01561010  RH  032%=      5-min Rain = 0
KEN1 181834Z 26031KT 16/M01 A2968 RMK A01 T01551012  RH  032%=      5-min Rain = 0
KEN1 181835Z 26027G32KT 15/M01 A2968 RMK A01 T01541013  RH  032%=      5-min Rain = 0
KEN1 181836Z 25028KT 15/M01 A2968 RMK A01 T01541012  RH  032%=      5-min Rain = 0
KEN1 181837Z 24031G36KT 16/M01 A2968 RMK A01 T01551012  RH  032%=      5-min Rain = 0
KEN1 181838Z 25028G33KT 16/M01 A2967 RMK A01 T01551012  RH  032%=      5-min Rain = 0
KEN1 181839Z 26026G34KT 16/M01 A2968 RMK A01 T01571013  RH  031%=      5-min Rain = 0
KEN1 181840Z 26029G34KT 16/M02 A2967 RMK A01 T01591017  RH  030%=      5-min Rain = 0
KEN1 181841Z 25028G36KT 16/M02 A2967 RMK A01 T01581019  RH  030%=      5-min Rain = 0
KEN1 181842Z 25032KT 16/M02 A2967 RMK A01 T01581020  RH  030%=      5-min Rain = 0
KEN1 181843Z 26027KT 16/M02 A2967 RMK A01 T01561018  RH  030%=      5-min Rain = 0
KEN1 181844Z 26031G37KT 16/M02 A2967 RMK A01 T01571018  RH  030%=      5-min Rain = 0
KEN1 181845Z 26032G37KT 16/M02 A2967 RMK A01 T01581023  RH  029%=      5-min Rain = 0
KEN1 181846Z 26026KT 16/M02 A2967 RMK A01 T01581022  RH  029%=      5-min Rain = 0
KEN1 181847Z 25027G35KT 16/M02 A2966 RMK A01 T01601018  RH  029%=      5-min Rain = 0
KEN1 181848Z 25030KT 16/M02 A2966 RMK A01 T01631021  RH  028%=      5-min Rain = 0
KEN1 181849Z 25023KT 16/M02 A2966 RMK A01 T01611022  RH  029%=      5-min Rain = 0
KEN1 181850Z 25029G34KT 16/M02 A2966 RMK A01 T01611018  RH  029%=      5-min Rain = 0
KEN1 181851Z 24034KT 16/M02 A2966 RMK A01 T01611016  RH  030%=      5-min Rain = 0
KEN1 181852Z 25029KT 16/M02 A2966 RMK A01 T01591021  RH  029%=      5-min Rain = 0
KEN1 181853Z 26027G35KT 16/M02 A2966 RMK A01 T01581018  RH  030%=      5-min Rain = 0
KEN1 181854Z 26033G38KT 16/M02 A2966 RMK A01 T01591021  RH  029%=      5-min Rain = 0
KEN1 181855Z 26030KT 16/M02 A2966 RMK A01 T01581023  RH  029%=      5-min Rain = 0
KEN1 181856Z 26029G34KT 16/M03 A2966 RMK A01 T01581026  RH  028%=      5-min Rain = 0
KEN1 181857Z 25030G35KT 16/M02 A2966 RMK A01 T01591024  RH  028%=      5-min Rain = 0
KEN1 181858Z 26032G39KT 16/M03 A2966 RMK A01 T01591027  RH  028%=      5-min Rain = 0
KEN1 181859Z 26032KT 16/M03 A2966 RMK A01 T01591029  RH  027%=      5-min Rain = 0
KEN1 181900Z 26024G31KT 16/M03 A2966 RMK A01 T01581026  RH  028%=      5-min Rain = 0
KEN1 181901Z 26030G36KT 16/M02 A2966 RMK A01 T01611021  RH  029%=      5-min Rain = 0
KEN1 181902Z 25027G34KT 16/M02 A2966 RMK A01 T01601022  RH  029%=      5-min Rain = 0
KEN1 181903Z 25030G39KT 16/M02 A2966 RMK A01 T01591023  RH  029%=      5-min Rain = 0
KEN1 181904Z 27028G35KT 16/M03 A2966 RMK A01 T01591027  RH  028%=      5-min Rain = 0
KEN1 181905Z 26029G38KT 16/M02 A2967 RMK A01 T01611024  RH  028%=      5-min Rain = 0
KEN1 181906Z 25030KT 16/M03 A2966 RMK A01 T01611025  RH  028%=      5-min Rain = 0
KEN1 181907Z 26030KT 16/M02 A2967 RMK A01 T01611024  RH  028%=      5-min Rain = 0
KEN1 181908Z 26028G34KT 16/M02 A2966 RMK A01 T01591023  RH  029%=      5-min Rain = 0
KEN1 181909Z 26029G36KT 16/M02 A2966 RMK A01 T01601022  RH  029%=      5-min Rain = 0
KEN1 181910Z 26030G35KT 16/M02 A2966 RMK A01 T01601022  RH  028%=      5-min Rain = 0
KEN1 181911Z 26032KT 16/M02 A2966 RMK A01 T01611024  RH  028%=      5-min Rain = 0
KEN1 181912Z 26029G38KT 16/M03 A2966 RMK A01 T01611026  RH  028%=      5-min Rain = 0
KEN1 181913Z 25033G38KT 16/M03 A2966 RMK A01 T01611027  RH  028%=      5-min Rain = 0
KEN1 181914Z 25031KT 16/M03 A2966 RMK A01 T01591027  RH  028%=      5-min Rain = 0
KEN1 181915Z 25030G37KT 16/M03 A2966 RMK A01 T01591029  RH  027%=      5-min Rain = 0
KEN1 181916Z 26029G35KT 16/M03 A2966 RMK A01 T01611032  RH  026%=      5-min Rain = 0
KEN1 181917Z 26031G39KT 16/M04 A2966 RMK A01 T01621035  RH  026%=      5-min Rain = 0
KEN1 181918Z 26031G36KT 16/M04 A2966 RMK A01 T01621039  RH  025%=      5-min Rain = 0
KEN1 181919Z 26030KT 16/M04 A2966 RMK A01 T01601042  RH  025%=      5-min Rain = 0
KEN1 181920Z 26025G32KT 16/M04 A2966 RMK A01 T01601040  RH  025%=      5-min Rain = 0
KEN1 181921Z 26031G37KT 16/M04 A2966 RMK A01 T01631039  RH  025%=      5-min Rain = 0
KEN1 181922Z 26031KT 16/M04 A2965 RMK A01 T01611040  RH  025%=      5-min Rain = 0
KEN1 181923Z 26032G37KT 16/M04 A2965 RMK A01 T01601040  RH  025%=      5-min Rain = 0
KEN1 181924Z 26030KT 16/M04 A2965 RMK A01 T01611044  RH  024%=      5-min Rain = 0
KEN1 181925Z 26031G36KT 16/M05 A2965 RMK A01 T01601047  RH  024%=      5-min Rain = 0
KEN1 181926Z 26031G36KT 16/M05 A2965 RMK A01 T01601048  RH  023%=      5-min Rain = 0
KEN1 181927Z 27027KT 16/M05 A2965 RMK A01 T01591051  RH  023%=      5-min Rain = 0
KEN1 181928Z 27028G33KT 16/M05 A2965 RMK A01 T01581052  RH  023%=      5-min Rain = 0
KEN1 181929Z 26025KT 16/M05 A2964 RMK A01 T01601051  RH  023%=      5-min Rain = 0
KEN1 181930Z 25030KT 16/M05 A2964 RMK A01 T01641052  RH  022%=      5-min Rain = 0
KEN1 181931Z 25025G30KT 17/M05 A2964 RMK A01 T01651050  RH  022%=      5-min Rain = 0
KEN1 181932Z 26025G36KT 17/M05 A2964 RMK A01 T01681046  RH  023%=      5-min Rain = 0
KEN1 181933Z 26025KT 17/M06 A2964 RMK A01 T01691055  RH  021%=      5-min Rain = 0
KEN1 181934Z 26022G27KT 17/M05 A2964 RMK A01 T01681050  RH  022%=      5-min Rain = 0
KEN1 181935Z 25028G34KT 17/M05 A2964 RMK A01 T01701047  RH  022%=      5-min Rain = 0
KEN1 181936Z 25029G34KT 17/M05 A2964 RMK A01 T01691050  RH  022%=      5-min Rain = 0
KEN1 181937Z 25030G37KT 17/M05 A2964 RMK A01 T01651052  RH  022%=      5-min Rain = 0
KEN1 181938Z 26027KT 16/M05 A2964 RMK A01 T01641050  RH  023%=      5-min Rain = 0
KEN1 181939Z 25030G35KT 16/M05 A2964 RMK A01 T01631052  RH  022%=      5-min Rain = 0
KEN1 181940Z 26027KT 16/M05 A2964 RMK A01 T01611053  RH  023%=      5-min Rain = 0
KEN1 181941Z 25029G36KT 16/M05 A2963 RMK A01 T01591052  RH  023%=      5-min Rain = 0
KEN1 181942Z 25027G32KT 16/M05 A2963 RMK A01 T01581053  RH  023%=      5-min Rain = 0
KEN1 181943Z 26024KT 16/M05 A2963 RMK A01 T01571052  RH  023%=      5-min Rain = 0
KEN1 181944Z 25030G35KT 16/M05 A2963 RMK A01 T01561052  RH  023%=      5-min Rain = 0
KEN1 181945Z 25029G34KT 15/M05 A2963 RMK A01 T01541054  RH  023%=      5-min Rain = 0
KEN1 181946Z 25026KT 15/M06 A2963 RMK A01 T01541055  RH  023%=      5-min Rain = 0
KEN1 181947Z 25029G34KT 15/M06 A2963 RMK A01 T01541055  RH  023%=      5-min Rain = 0
KEN1 181948Z 26028KT 15/M06 A2963 RMK A01 T01541056  RH  023%=      5-min Rain = 0
KEN1 181949Z 26024G32KT 15/M06 A2963 RMK A01 T01541056  RH  023%=      5-min Rain = 0
KEN1 181950Z 26021KT 15/M05 A2963 RMK A01 T01531054  RH  024%=      5-min Rain = 0
KEN1 181951Z 25027G36KT 15/M05 A2963 RMK A01 T01541054  RH  024%=      5-min Rain = 0
KEN1 181952Z 26028KT 15/M06 A2963 RMK A01 T01521057  RH  023%=      5-min Rain = 0
KEN1 181953Z 26026KT 15/M06 A2963 RMK A01 T01521057  RH  023%=      5-min Rain = 0
KEN1 181954Z 27026KT 15/M06 A2963 RMK A01 T01521055  RH  023%=      5-min Rain = 0
KEN1 181955Z 26025G31KT 15/M05 A2963 RMK A01 T01521054  RH  024%=      5-min Rain = 0
KEN1 181956Z 26027KT 15/M05 A2963 RMK A01 T01521054  RH  024%=      5-min Rain = 0
KEN1 181957Z 26027G32KT 15/M06 A2963 RMK A01 T01501057  RH  023%=      5-min Rain = 0
KEN1 181958Z 26026G31KT 15/M06 A2963 RMK A01 T01501057  RH  024%=      5-min Rain = 0
KEN1 181959Z 26023KT 15/M06 A2962 RMK A01 T01501055  RH  024%=      5-min Rain = 0
KEN1 182000Z 26023KT 15/M05 A2962 RMK A01 T01501054  RH  024%=      5-min Rain = 0
KEN1 182001Z 26023KT 15/M05 A2962 RMK A01 T01511054  RH  024%=      5-min Rain = 0
KEN1 182002Z 26022KT 15/M06 A2962 RMK A01 T01501055  RH  024%=      5-min Rain = 0
KEN1 182003Z 26021G27KT 15/M06 A2962 RMK A01 T01501056  RH  024%=      5-min Rain = 0
KEN1 182004Z 26020KT 15/M06 A2962 RMK A01 T01501056  RH  024%=      5-min Rain = 0
KEN1 182005Z 26021G28KT 15/M05 A2962 RMK A01 T01501053  RH  024%=      5-min Rain = 0
KEN1 182006Z 26024KT 15/M06 A2962 RMK A01 T01511056  RH  024%=      5-min Rain = 0
KEN1 182007Z 26024KT 15/M06 A2963 RMK A01 T01511057  RH  023%=      5-min Rain = 0
KEN1 182008Z 26022KT 15/M06 A2963 RMK A01 T01511058  RH  023%=      5-min Rain = 0
KEN1 182009Z 26018KT 15/M06 A2963 RMK A01 T01511056  RH  023%=      5-min Rain = 0
KEN1 182010Z 26021G26KT 15/M06 A2963 RMK A01 T01511056  RH  023%=      5-min Rain = 0
KEN1 182011Z 27024G29KT 15/M06 A2963 RMK A01 T01511056  RH  023%=      5-min Rain = 0
KEN1 182012Z 27024G29KT 15/M06 A2963 RMK A01 T01511058  RH  023%=      5-min Rain = 0
KEN1 182013Z 26026G32KT 15/M06 A2963 RMK A01 T01501058  RH  023%=      5-min Rain = 0
KEN1 182014Z 27025G30KT 15/M06 A2963 RMK A01 T01501059  RH  023%=      5-min Rain = 0
KEN1 182015Z 27025KT 15/M06 A2963 RMK A01 T01501059  RH  023%=      5-min Rain = 0
KEN1 182016Z 27026G31KT 15/M06 A2963 RMK A01 T01501062  RH  023%=      5-min Rain = 0
KEN1 182017Z 28026KT 15/M06 A2963 RMK A01 T01521062  RH  022%=      5-min Rain = 0
KEN1 182018Z 28024G29KT 15/M06 A2963 RMK A01 T01521061  RH  022%=      5-min Rain = 0
KEN1 182019Z 27024G30KT 15/M06 A2963 RMK A01 T01521060  RH  023%=      5-min Rain = 0
KEN1 182020Z 27025KT 15/M06 A2963 RMK A01 T01541059  RH  023%=      5-min Rain = 0
KEN1 182021Z 27023KT 16/M06 A2963 RMK A01 T01591055  RH  022%=      5-min Rain = 0
KEN1 182022Z 26026G33KT 17/M05 A2963 RMK A01 T01661052  RH  022%=      5-min Rain = 0
KEN1 182023Z 26026KT 17/M06 A2963 RMK A01 T01671056  RH  021%=      5-min Rain = 0
KEN1 182024Z 27025G31KT 16/M06 A2963 RMK A01 T01641059  RH  021%=      5-min Rain = 0
KEN1 182025Z 27028G33KT 16/M06 A2963 RMK A01 T01631057  RH  022%=      5-min Rain = 0
KEN1 182026Z 26027KT 16/M06 A2963 RMK A01 T01591059  RH  022%=      5-min Rain = 0
KEN1 182027Z 26028G33KT 16/M06 A2963 RMK A01 T01571060  RH  022%=      5-min Rain = 0
KEN1 182028Z 26026G31KT 16/M06 A2963 RMK A01 T01551062  RH  022%=      5-min Rain = 0
KEN1 182029Z 27026G31KT 15/M06 A2963 RMK A01 T01541061  RH  022%=      5-min Rain = 0
KEN1 182030Z 27027KT 15/M06 A2963 RMK A01 T01531061  RH  022%=      5-min Rain = 0
KEN1 182031Z 26022KT 15/M06 A2963 RMK A01 T01521062  RH  022%=      5-min Rain = 0
KEN1 182032Z 26029G37KT 15/M06 A2963 RMK A01 T01521055  RH  023%=      5-min Rain = 0
KEN1 182033Z 26028G34KT 15/M05 A2963 RMK A01 T01511050  RH  025%=      5-min Rain = 0
KEN1 182034Z 26032G37KT 15/M05 A2963 RMK A01 T01501048  RH  025%=      5-min Rain = 0
KEN1 182035Z 26032G37KT 15/M05 A2963 RMK A01 T01491047  RH  026%=      5-min Rain = 0
KEN1 182036Z 26028KT 15/M05 A2964 RMK A01 T01481045  RH  026%=      5-min Rain = 0
KEN1 182037Z 26025KT 15/M05 A2964 RMK A01 T01481045  RH  026%=      5-min Rain = 0
KEN1 182038Z 26027G32KT 15/M05 A2963 RMK A01 T01471045  RH  026%=      5-min Rain = 0
KEN1 182039Z 26029KT 15/M05 A2964 RMK A01 T01471045  RH  026%=      5-min Rain = 0
KEN1 182040Z 26028G33KT 15/M04 A2964 RMK A01 T01471044  RH  026%=      5-min Rain = 0
KEN1 182041Z 26030G35KT 15/M04 A2964 RMK A01 T01461042  RH  027%=      5-min Rain = 0
KEN1 182042Z 26030G36KT 15/M04 A2964 RMK A01 T01451041  RH  027%=      5-min Rain = 0
KEN1 182043Z 26030G35KT 15/M04 A2964 RMK A01 T01451043  RH  027%=      5-min Rain = 0
KEN1 182044Z 26029G37KT 14/M04 A2964 RMK A01 T01441042  RH  027%=      5-min Rain = 0
KEN1 182045Z 25029G36KT 14/M04 A2964 RMK A01 T01421041  RH  028%=      5-min Rain = 0
KEN1 182046Z 25032G39KT 14/M04 A2964 RMK A01 T01401039  RH  029%=      5-min Rain = 0
KEN1 182047Z 25027G32KT 14/M04 A2964 RMK A01 T01381037  RH  029%=      5-min Rain = 0
KEN1 182048Z 25034G39KT 14/M04 A2964 RMK A01 T01381036  RH  030%=      5-min Rain = 0
KEN1 182049Z 25032G38KT 14/M04 A2964 RMK A01 T01371038  RH  030%=      5-min Rain = 0
KEN1 182050Z 25027G32KT 14/M04 A2964 RMK A01 T01361038  RH  030%=      5-min Rain = 0
KEN1 182051Z 25026G31KT 14/M04 A2964 RMK A01 T01361037  RH  030%=      5-min Rain = 0
KEN1 182052Z 25029G37KT 14/M04 A2964 RMK A01 T01361037  RH  030%=      5-min Rain = 0
KEN1 182053Z 26027G34KT 14/M04 A2964 RMK A01 T01361038  RH  030%=      5-min Rain = 0
KEN1 182054Z 25029G35KT 14/M04 A2964 RMK A01 T01361038  RH  030%=      5-min Rain = 0
KEN1 182055Z 25028G35KT 14/M04 A2964 RMK A01 T01361038  RH  030%=      5-min Rain = 0
KEN1 182056Z 26023G28KT 14/M04 A2964 RMK A01 T01361037  RH  030%=      5-min Rain = 0
KEN1 182057Z 26028G33KT 14/M04 A2964 RMK A01 T01361037  RH  030%=      5-min Rain = 0
KEN1 182058Z 26027KT 14/M04 A2964 RMK A01 T01371036  RH  030%=      5-min Rain = 0
KEN1 182059Z 25027G32KT 14/M04 A2964 RMK A01 T01381036  RH  030%=      5-min Rain = 0
KEN1 182100Z 26026KT 14/M04 A2964 RMK A01 T01401035  RH  029%=      5-min Rain = 0
KEN1 182101Z 26025G30KT 14/M04 A2964 RMK A01 T01421035  RH  029%=      5-min Rain = 0
KEN1 182102Z 26027G32KT 15/M04 A2964 RMK A01 T01451035  RH  029%=      5-min Rain = 0
KEN1 182103Z 26025G31KT 15/M04 A2964 RMK A01 T01491037  RH  027%=      5-min Rain = 0
KEN1 182104Z 26023KT 15/M04 A2964 RMK A01 T01521039  RH  027%=      5-min Rain = 0
KEN1 182105Z 26029G36KT 15/M04 A2964 RMK A01 T01531044  RH  026%=      5-min Rain = 0
KEN1 182106Z 27026G33KT 15/M05 A2964 RMK A01 T01501048  RH  025%=      5-min Rain = 0
KEN1 182107Z 27024G30KT 15/M05 A2964 RMK A01 T01491048  RH  025%=      5-min Rain = 0
KEN1 182108Z 27024G29KT 15/M05 A2965 RMK A01 T01481048  RH  025%=      5-min Rain = 0
KEN1 182109Z 27024KT 15/M05 A2965 RMK A01 T01471048  RH  026%=      5-min Rain = 0
KEN1 182110Z 27023KT 15/M05 A2965 RMK A01 T01471047  RH  026%=      5-min Rain = 0
KEN1 182111Z 26023G28KT 15/M05 A2965 RMK A01 T01471045  RH  026%=      5-min Rain = 0
KEN1 182112Z 26023G30KT 15/M04 A2965 RMK A01 T01461044  RH  027%=      5-min Rain = 0
KEN1 182113Z 26028KT 14/M05 A2965 RMK A01 T01441045  RH  027%=      5-min Rain = 0
KEN1 182114Z 26024G30KT 14/M05 A2965 RMK A01 T01421047  RH  027%=      5-min Rain = 0
KEN1 182115Z 27030KT 14/M05 A2965 RMK A01 T01411048  RH  027%=      5-min Rain = 0
KEN1 182116Z 26024G29KT 14/M05 A2965 RMK A01 T01391049  RH  027%=      5-min Rain = 0
KEN1 182117Z 26021G26KT 14/M05 A2965 RMK A01 T01391047  RH  027%=      5-min Rain = 0
KEN1 182118Z 26023G30KT 14/M05 A2965 RMK A01 T01381047  RH  027%=      5-min Rain = 0
KEN1 182119Z 26023G29KT 14/M05 A2965 RMK A01 T01381046  RH  027%=      5-min Rain = 0
KEN1 182120Z 26026KT 14/M05 A2965 RMK A01 T01381046  RH  028%=      5-min Rain = 0
KEN1 182121Z 26024KT 14/M05 A2965 RMK A01 T01371047  RH  028%=      5-min Rain = 0
KEN1 182122Z 27024G31KT 14/M05 A2965 RMK A01 T01371046  RH  028%=      5-min Rain = 0
KEN1 182123Z 27024KT 14/M05 A2965 RMK A01 T01371046  RH  028%=      5-min Rain = 0
KEN1 182124Z 27027KT 14/M05 A2965 RMK A01 T01371045  RH  028%=      5-min Rain = 0
KEN1 182125Z 27028KT 14/M05 A2966 RMK A01 T01371045  RH  028%=      5-min Rain = 0
KEN1 182126Z 27026KT 14/M04 A2966 RMK A01 T01371043  RH  028%=      5-min Rain = 0
KEN1 182127Z 27027KT 14/M04 A2966 RMK A01 T01361043  RH  029%=      5-min Rain = 0
KEN1 182128Z 27024G29KT 14/M04 A2966 RMK A01 T01361043  RH  029%=      5-min Rain = 0
KEN1 182129Z 27022KT 14/M04 A2966 RMK A01 T01361042  RH  029%=      5-min Rain = 0
KEN1 182130Z 27024G30KT 14/M04 A2966 RMK A01 T01361042  RH  029%=      5-min Rain = 0
KEN1 182131Z 28024G31KT 14/M04 A2966 RMK A01 T01361042  RH  029%=      5-min Rain = 0
KEN1 182132Z 27028G33KT 14/M04 A2966 RMK A01 T01361041  RH  029%=      5-min Rain = 0
KEN1 182133Z 28027G32KT 14/M04 A2966 RMK A01 T01361041  RH  029%=      5-min Rain = 0
KEN1 182134Z 28024KT 14/M04 A2966 RMK A01 T01351041  RH  029%=      5-min Rain = 0
KEN1 182135Z 28025KT 14/M04 A2966 RMK A01 T01351041  RH  029%=      5-min Rain = 0
KEN1 182136Z 27022G27KT 14/M04 A2966 RMK A01 T01351041  RH  029%=      5-min Rain = 0
KEN1 182137Z 27018KT 14/M04 A2966 RMK A01 T01361040  RH  029%=      5-min Rain = 0
KEN1 182138Z 27021G27KT 14/M04 A2966 RMK A01 T01371039  RH  029%=      5-min Rain = 0
KEN1 182139Z 27022G28KT 14/M04 A2966 RMK A01 T01371040  RH  029%=      5-min Rain = 0
KEN1 182140Z 27022KT 14/M04 A2966 RMK A01 T01371040  RH  029%=      5-min Rain = 0
KEN1 182141Z 27025G30KT 14/M04 A2966 RMK A01 T01371040  RH  029%=      5-min Rain = 0
KEN1 182142Z 27022KT 14/M04 A2966 RMK A01 T01381041  RH  029%=      5-min Rain = 0
KEN1 182143Z 27024G29KT 14/M04 A2966 RMK A01 T01391040  RH  029%=      5-min Rain = 0
KEN1 182144Z 27026KT 14/M04 A2966 RMK A01 T01391041  RH  028%=      5-min Rain = 0
KEN1 182145Z 27022G28KT 14/M04 A2966 RMK A01 T01391040  RH  029%=      5-min Rain = 0
KEN1 182146Z 28026G32KT 14/M04 A2966 RMK A01 T01391040  RH  029%=      5-min Rain = 0
KEN1 182147Z 28022KT 14/M04 A2966 RMK A01 T01391039  RH  029%=      5-min Rain = 0
KEN1 182148Z 28022KT 14/M04 A2966 RMK A01 T01401038  RH  029%=      5-min Rain = 0
KEN1 182149Z 28025G30KT 14/M04 A2966 RMK A01 T01411038  RH  029%=      5-min Rain = 0
KEN1 182150Z 28026KT 14/M04 A2966 RMK A01 T01411038  RH  029%=      5-min Rain = 0
KEN1 182151Z 28022KT 14/M04 A2966 RMK A01 T01421037  RH  029%=      5-min Rain = 0
KEN1 182152Z 29024G30KT 14/M04 A2967 RMK A01 T01441036  RH  029%=      5-min Rain = 0
KEN1 182153Z 29021G26KT 15/M04 A2967 RMK A01 T01471038  RH  028%=      5-min Rain = 0
KEN1 182154Z 29022G27KT 15/M04 A2967 RMK A01 T01501037  RH  027%=      5-min Rain = 0
KEN1 182155Z 30021KT 15/M04 A2967 RMK A01 T01521039  RH  026%=      5-min Rain = 0
KEN1 182156Z 29020G28KT 16/M04 A2967 RMK A01 T01551037  RH  026%=      5-min Rain = 0
KEN1 182157Z 29025KT 16/M04 A2966 RMK A01 T01581035  RH  026%=      5-min Rain = 0
KEN1 182158Z 31022G27KT 16/M04 A2967 RMK A01 T01571037  RH  026%=      5-min Rain = 0
KEN1 182159Z 32021KT 16/M03 A2967 RMK A01 T01561031  RH  027%=      5-min Rain = 0
KEN1 182200Z 32024KT 16/M02 A2967 RMK A01 T01551021  RH  030%=      5-min Rain = 0
KEN1 182201Z 33025G30KT 15/M02 A2967 RMK A01 T01501018  RH  031%=      5-min Rain = 0
KEN1 182202Z 33024KT 14/M02 A2967 RMK A01 T01441016  RH  033%=      5-min Rain = 0
KEN1 182203Z 34024KT 14/M01 A2967 RMK A01 T01411014  RH  034%=      5-min Rain = 0
KEN1 182204Z 34026KT 14/M01 A2968 RMK A01 T01391013  RH  035%=      5-min Rain = 0
KEN1 182205Z 33025KT 14/M01 A2968 RMK A01 T01361013  RH  036%=      5-min Rain = 0
KEN1 182206Z 33026KT 13/M01 A2968 RMK A01 T01341013  RH  036%=      5-min Rain = 0
KEN1 182207Z 33025KT 13/M01 A2968 RMK A01 T01331014  RH  036%=      5-min Rain = 0
KEN1 182208Z 33021KT 13/M01 A2968 RMK A01 T01321013  RH  037%=      5-min Rain = 0
KEN1 182209Z 34020KT 13/M01 A2968 RMK A01 T01321012  RH  037%=      5-min Rain = 0
KEN1 182210Z 33020KT 13/M01 A2968 RMK A01 T01311012  RH  037%=      5-min Rain = 0
KEN1 182211Z 34025KT 13/M01 A2968 RMK A01 T01311011  RH  037%=      5-min Rain = 0
KEN1 182212Z 34022KT 13/M01 A2968 RMK A01 T01301011  RH  037%=      5-min Rain = 0
KEN1 182213Z 34019KT 13/M01 A2968 RMK A01 T01301010  RH  038%=      5-min Rain = 0
KEN1 182214Z 34021KT 13/M01 A2968 RMK A01 T01301010  RH  038%=      5-min Rain = 0
KEN1 182215Z 34019KT 13/M01 A2968 RMK A01 T01301010  RH  038%=      5-min Rain = 0
KEN1 182216Z 34019G24KT 13/M01 A2968 RMK A01 T01301010  RH  038%=      5-min Rain = 0
KEN1 182217Z 34021KT 13/M01 A2968 RMK A01 T01301011  RH  038%=      5-min Rain = 0
KEN1 182218Z 34023G29KT 13/M01 A2968 RMK A01 T01291012  RH  037%=      5-min Rain = 0
KEN1 182219Z 33026G31KT 13/M01 A2969 RMK A01 T01291013  RH  038%=      5-min Rain = 0
KEN1 182220Z 33027KT 13/M01 A2969 RMK A01 T01261005  RH  041%=      5-min Rain = 0
KEN1 182221Z 33025KT 12/00 A2969 RMK A01 T012200-0  RH  043%=      5-min Rain = 0
KEN1 182222Z 33026KT 12/00 A2969 RMK A01 T01190001  RH  044%=      5-min Rain = 0
KEN1 182223Z 33029KT 12/00 A2969 RMK A01 T01180000  RH  044%=      5-min Rain = 0
KEN1 182224Z 34038G44KT 12/M00 A297 RMK A01 T01171003  RH  044%=      5-min Rain = 0
KEN1 182225Z 34041G48KT 12/M01 A297 RMK A01 T01151009  RH  042%=      5-min Rain = 0
KEN1 182226Z 34040G47KT 11/M01 A2971 RMK A01 T01101007  RH  044%=      5-min Rain = 0
KEN1 182227Z 34036G43KT 10/00 A2971 RMK A01 T01040001  RH  049%=      5-min Rain = 0
KEN1 182228Z 34039G45KT 10/01 A2972 RMK A01 T00960011  RH  056%=      5-min Rain = 0
KEN1 182229Z 34035G40KT 09/02 A2972 RMK A01 T00870016  RH  061%=      5-min Rain = 0
KEN1 182230Z 34030G35KT 08/02 A2972 RMK A01 T00820021  RH  066%=      5-min Rain = 0
KEN1 182231Z 34031G37KT 08/02 A2972 RMK A01 T00780023  RH  068%=      5-min Rain = 0
KEN1 182232Z 34029G34KT 08/02 A2973 RMK A01 T00770024  RH  069%=      5-min Rain = 0
KEN1 182233Z 34026G32KT 08/03 A2973 RMK A01 T00750025  RH  071%=      5-min Rain = 0
KEN1 182234Z 34026KT 07/03 A2973 RMK A01 T00730027  RH  073%=      5-min Rain = 0
KEN1 182235Z 35033G38KT 07/03 A2973 RMK A01 T00730026  RH  072%=      5-min Rain = 0
KEN1 182236Z 00031G37KT 07/02 A2973 RMK A01 T00740023  RH  070%=      5-min Rain = 0
KEN1 182237Z 36029G36KT 08/02 A2973 RMK A01 T00750020  RH  068%=      5-min Rain = 0
KEN1 182238Z 36025KT 08/02 A2974 RMK A01 T00750022  RH  069%=      5-min Rain = 0
KEN1 182239Z 35027G33KT 07/03 A2974 RMK A01 T00740025  RH  071%=      5-min Rain = 0
KEN1 182240Z 35028G34KT 07/02 A2974 RMK A01 T00740023  RH  070%=      5-min Rain = 0
KEN1 182241Z 36027KT 07/03 A2974 RMK A01 T00740025  RH  071%=      5-min Rain = 0
KEN1 182242Z 36024KT 07/03 A2974 RMK A01 T00730026  RH  072%=      5-min Rain = 0
KEN1 182243Z 36025G33KT 07/03 A2975 RMK A01 T00730026  RH  072%=      5-min Rain = 0
KEN1 182244Z 00026G31KT 07/02 A2975 RMK A01 T00720023  RH  071%=      5-min Rain = 0
KEN1 182245Z 00021KT 07/02 A2975 RMK A01 T00720023  RH  071%=      5-min Rain = 0
KEN1 182246Z 36022G28KT 07/03 A2975 RMK A01 T00710025  RH  073%=      5-min Rain = 0
KEN1 182247Z 01025KT 07/02 A2975 RMK A01 T00700023  RH  072%=      5-min Rain = 0
KEN1 182248Z 01025G30KT 07/02 A2975 RMK A01 T00710023  RH  071%=      5-min Rain = 0
KEN1 182249Z 01022KT 07/02 A2976 RMK A01 T00710022  RH  071%=      5-min Rain = 0
KEN1 182250Z 00022KT 07/02 A2976 RMK A01 T00700023  RH  072%=      5-min Rain = 0
KEN1 182251Z 36018KT 07/02 A2976 RMK A01 T00690024  RH  073%=      5-min Rain = 0
KEN1 182252Z 00019KT 07/03 A2976 RMK A01 T00690026  RH  074%=      5-min Rain = 0
KEN1 182253Z 01017G23KT 07/03 A2976 RMK A01 T00690026  RH  074%=      5-min Rain = 0.01
KEN1 182254Z 00020KT 07/03 A2976 RMK A01 T00680027  RH  075%=      5-min Rain = 0
KEN1 182255Z 36024G30KT 07/02 A2976 RMK A01 T00680022  RH  072%=      5-min Rain = 0
KEN1 182256Z 35023KT 07/02 A2976 RMK A01 T00690021  RH  071%=      5-min Rain = 0
KEN1 182257Z 36022G29KT 07/02 A2977 RMK A01 T00700021  RH  071%=      5-min Rain = 0
KEN1 182258Z 35023KT 07/02 A2977 RMK A01 T00690022  RH  072%=      5-min Rain = 0
KEN1 182259Z 36021G26KT 07/02 A2977 RMK A01 T00680024  RH  074%=      5-min Rain = 0
KEN1 182300Z 35021KT 07/03 A2977 RMK A01 T00670026  RH  075%=      5-min Rain = 0
KEN1 182301Z 36020KT 07/03 A2977 RMK A01 T00660025  RH  075%=      5-min Rain = 0
KEN1 182302Z 35021KT 07/03 A2977 RMK A01 T00660027  RH  076%=      5-min Rain = 0
KEN1 182303Z 34019KT 07/03 A2978 RMK A01 T00660026  RH  076%=      5-min Rain = 0
KEN1 182304Z 34023KT 07/03 A2978 RMK A01 T00660027  RH  076%=      5-min Rain = 0
KEN1 182305Z 34020KT 07/03 A2978 RMK A01 T00660027  RH  076%=      5-min Rain = 0
KEN1 182306Z 34022G27KT 07/03 A2978 RMK A01 T00650027  RH  077%=      5-min Rain = 0
KEN1 182307Z 35025KT 07/03 A2978 RMK A01 T00650026  RH  076%=      5-min Rain = 0
KEN1 182308Z 34027KT 06/03 A2979 RMK A01 T00640025  RH  076%=      5-min Rain = 0
KEN1 182309Z 35027KT 06/02 A2979 RMK A01 T00630024  RH  076%=      5-min Rain = 0
KEN1 182310Z 34025KT 06/03 A2979 RMK A01 T00630025  RH  077%=      5-min Rain = 0
KEN1 182311Z 34024KT 06/03 A2979 RMK A01 T00620025  RH  077%=      5-min Rain = 0
KEN1 182312Z 34023KT 06/03 A2979 RMK A01 T00610026  RH  078%=      5-min Rain = 0
KEN1 182313Z 35025G31KT 06/03 A2979 RMK A01 T00610027  RH  079%=      5-min Rain = 0
KEN1 182314Z 35023KT 06/03 A2979 RMK A01 T00600026  RH  079%=      5-min Rain = 0
KEN1 182315Z 35024KT 06/03 A2979 RMK A01 T00610027  RH  079%=      5-min Rain = 0
KEN1 182316Z 34028G33KT 06/03 A2979 RMK A01 T00600026  RH  078%=      5-min Rain = 0
KEN1 182317Z 35024KT 06/03 A298 RMK A01 T00600025  RH  078%=      5-min Rain = 0
KEN1 182318Z 35022KT 06/03 A298 RMK A01 T00600026  RH  078%=      5-min Rain = 0
KEN1 182319Z 35023KT 06/03 A298 RMK A01 T00600027  RH  079%=      5-min Rain = 0
KEN1 182320Z 35025G30KT 06/03 A298 RMK A01 T00600025  RH  079%=      5-min Rain = 0
KEN1 182321Z 34025G31KT 06/03 A298 RMK A01 T00600025  RH  078%=      5-min Rain = 0
KEN1 182322Z 35027G32KT 06/03 A298 RMK A01 T00600025  RH  079%=      5-min Rain = 0
KEN1 182323Z 35025KT 06/03 A298 RMK A01 T00600026  RH  079%=      5-min Rain = 0
KEN1 182324Z 35024KT 06/03 A298 RMK A01 T00600027  RH  079%=      5-min Rain = 0
KEN1 182325Z 35024KT 06/03 A2981 RMK A01 T00600027  RH  079%=      5-min Rain = 0
KEN1 182326Z 35021KT 06/03 A2981 RMK A01 T00600027  RH  080%=      5-min Rain = 0
KEN1 182327Z 35020KT 06/03 A2981 RMK A01 T00590028  RH  080%=      5-min Rain = 0
KEN1 182328Z 35017KT 06/03 A2981 RMK A01 T00590029  RH  081%=      5-min Rain = 0
KEN1 182329Z 35020KT 06/03 A2981 RMK A01 T00580030  RH  082%=      5-min Rain = 0
KEN1 182330Z 35021KT 06/03 A2981 RMK A01 T00580030  RH  082%=      5-min Rain = 0
KEN1 182331Z 35020KT 06/03 A2981 RMK A01 T00580030  RH  082%=      5-min Rain = 0
KEN1 182332Z 35021KT 06/03 A2981 RMK A01 T00570031  RH  083%=      5-min Rain = 0
KEN1 182333Z 35020KT 06/03 A2981 RMK A01 T00570031  RH  083%=      5-min Rain = 0
KEN1 182334Z 35020KT 06/03 A2981 RMK A01 T00570031  RH  084%=      5-min Rain = 0
KEN1 182335Z 35018KT 06/03 A2982 RMK A01 T00560032  RH  084%=      5-min Rain = 0
KEN1 182336Z 35020KT 06/03 A2982 RMK A01 T00560032  RH  085%=      5-min Rain = 0
KEN1 182337Z 35020KT 06/03 A2982 RMK A01 T00560032  RH  085%=      5-min Rain = 0
KEN1 182338Z 36020KT 06/03 A2982 RMK A01 T00550032  RH  085%=      5-min Rain = 0
KEN1 182339Z 36020KT 06/03 A2982 RMK A01 T00550031  RH  085%=      5-min Rain = 0.01
KEN1 182340Z 36020KT 05/03 A2982 RMK A01 T00540031  RH  085%=      5-min Rain = 0
KEN1 182341Z 35020KT 05/03 A2982 RMK A01 T00540031  RH  086%=      5-min Rain = 0
KEN1 182342Z 35018KT 05/03 A2982 RMK A01 T00540032  RH  086%=      5-min Rain = 0
KEN1 182343Z 00014KT 05/03 A2982 RMK A01 T00530032  RH  086%=      5-min Rain = 0
KEN1 182344Z 00019G24KT 05/03 A2982 RMK A01 T00530032  RH  086%=      5-min Rain = 0
KEN1 182345Z 00015G20KT 05/03 A2982 RMK A01 T00530031  RH  086%=      5-min Rain = 0
KEN1 182346Z 00014KT 05/03 A2982 RMK A01 T00520032  RH  087%=      5-min Rain = 0
KEN1 182347Z 35022G28KT 05/03 A2982 RMK A01 T00520032  RH  087%=      5-min Rain = 0
KEN1 182348Z 35023KT 05/03 A2982 RMK A01 T00540031  RH  085%=      5-min Rain = 0
KEN1 182349Z 36018KT 06/03 A2982 RMK A01 T00550031  RH  085%=      5-min Rain = 0
KEN1 182350Z 35017KT 06/03 A2983 RMK A01 T00550032  RH  085%=      5-min Rain = 0
KEN1 182351Z 35022G27KT 06/03 A2983 RMK A01 T00550033  RH  086%=      5-min Rain = 0
KEN1 182352Z 34024G32KT 05/03 A2983 RMK A01 T00540030  RH  084%=      5-min Rain = 0
KEN1 182353Z 35029G34KT 06/03 A2983 RMK A01 T00550028  RH  083%=      5-min Rain = 0
KEN1 182354Z 36028G33KT 06/03 A2983 RMK A01 T00550027  RH  082%=      5-min Rain = 0
KEN1 182355Z 36027G32KT 05/03 A2983 RMK A01 T00540026  RH  082%=      5-min Rain = 0
KEN1 182356Z 35026KT 05/03 A2983 RMK A01 T00540027  RH  083%=      5-min Rain = 0
KEN1 182357Z 35024KT 05/03 A2983 RMK A01 T00530027  RH  083%=      5-min Rain = 0
KEN1 182358Z 35021KT 05/03 A2983 RMK A01 T00530028  RH  084%=      5-min Rain = 0
KEN1 182359Z 35021KT 05/03 A2983 RMK A01 T00520029  RH  085%=      5-min Rain = 0
KEN1 190000Z 35020KT 05/03 A2984 RMK A01 T00520030  RH  085%=      5-min Rain = 0
KEN1 190001Z 34022KT 05/03 A2984 RMK A01 T00520029  RH  086%=      5-min Rain = 0
KEN1 190002Z 34026G32KT 05/03 A2984 RMK A01 T00520029  RH  085%=      5-min Rain = 0
KEN1 190003Z 34027KT 05/03 A2984 RMK A01 T00520028  RH  085%=      5-min Rain = 0
KEN1 190004Z 34025G33KT 05/03 A2984 RMK A01 T00510028  RH  085%=      5-min Rain = 0
KEN1 190005Z 34028G33KT 05/03 A2985 RMK A01 T00500027  RH  085%=      5-min Rain = 0
KEN1 190006Z 34029G35KT 05/03 A2985 RMK A01 T00480026  RH  086%=      5-min Rain = 0
KEN1 190007Z 34026G31KT 05/03 A2985 RMK A01 T00470025  RH  086%=      5-min Rain = 0
KEN1 190008Z 34025G30KT 05/03 A2985 RMK A01 T00460025  RH  086%=      5-min Rain = 0
KEN1 190009Z 34025G31KT 05/03 A2985 RMK A01 T00460025  RH  087%=      5-min Rain = 0
KEN1 190010Z 34023KT 05/03 A2985 RMK A01 T00450026  RH  087%=      5-min Rain = 0
KEN1 190011Z 34025G32KT 04/03 A2985 RMK A01 T00440026  RH  088%=      5-min Rain = 0
KEN1 190012Z 34023KT 04/03 A2986 RMK A01 T00430025  RH  088%=      5-min Rain = 0
KEN1 190013Z 34026KT 04/03 A2985 RMK A01 T00430025  RH  088%=      5-min Rain = 0
KEN1 190014Z 34026KT 04/02 A2986 RMK A01 T00420024  RH  088%=      5-min Rain = 0
KEN1 190015Z 34023KT 04/02 A2986 RMK A01 T00420024  RH  088%=      5-min Rain = 0
KEN1 190016Z 34023KT 04/02 A2986 RMK A01 T00410024  RH  089%=      5-min Rain = 0.01
KEN1 190017Z 34023KT 04/03 A2986 RMK A01 T00400025  RH  089%=      5-min Rain = 0
KEN1 190018Z 34020G26KT 04/03 A2986 RMK A01 T00400025  RH  090%=      5-min Rain = 0
KEN1 190019Z 34025KT 04/03 A2987 RMK A01 T00400025  RH  090%=      5-min Rain = 0
KEN1 190020Z 34024G29KT 04/02 A2987 RMK A01 T00390024  RH  090%=      5-min Rain = 0
KEN1 190021Z 34023G29KT 04/02 A2987 RMK A01 T00400024  RH  090%=      5-min Rain = 0
KEN1 190022Z 34024G29KT 04/02 A2987 RMK A01 T00390024  RH  090%=      5-min Rain = 0
KEN1 190023Z 34024KT 04/02 A2987 RMK A01 T00390024  RH  090%=      5-min Rain = 0
KEN1 190024Z 34023G28KT 04/02 A2987 RMK A01 T00380023  RH  090%=      5-min Rain = 0
KEN1 190025Z 35027KT 04/02 A2987 RMK A01 T00380023  RH  090%=      5-min Rain = 0
KEN1 190026Z 35023G28KT 04/02 A2987 RMK A01 T00380022  RH  089%=      5-min Rain = 0
KEN1 190027Z 35019KT 04/02 A2988 RMK A01 T00380022  RH  089%=      5-min Rain = 0
KEN1 190028Z 35023KT 04/02 A2988 RMK A01 T00380023  RH  090%=      5-min Rain = 0
KEN1 190029Z 35022G30KT 04/02 A2988 RMK A01 T00380023  RH  090%=      5-min Rain = 0.01
KEN1 190030Z 34022KT 04/02 A2988 RMK A01 T00380023  RH  090%=      5-min Rain = 0
KEN1 190031Z 35025KT 04/02 A2988 RMK A01 T00380022  RH  090%=      5-min Rain = 0
KEN1 190032Z 35025KT 04/02 A2988 RMK A01 T00370021  RH  089%=      5-min Rain = 0
KEN1 190033Z 34025KT 04/02 A2988 RMK A01 T00380021  RH  089%=      5-min Rain = 0
KEN1 190034Z 34025KT 04/02 A2988 RMK A01 T00370020  RH  089%=      5-min Rain = 0
KEN1 190035Z 34025KT 04/02 A2988 RMK A01 T00380020  RH  088%=      5-min Rain = 0
KEN1 190036Z 35021G26KT 04/02 A2989 RMK A01 T00370020  RH  088%=      5-min Rain = 0
KEN1 190037Z 34021KT 04/02 A2989 RMK A01 T00380021  RH  089%=      5-min Rain = 0
KEN1 190038Z 35021KT 04/02 A2989 RMK A01 T00370021  RH  089%=      5-min Rain = 0
KEN1 190039Z 34023KT 04/02 A2989 RMK A01 T00370021  RH  089%=      5-min Rain = 0
KEN1 190040Z 35020KT 04/02 A2989 RMK A01 T00370021  RH  089%=      5-min Rain = 0
KEN1 190041Z 35023KT 04/02 A2989 RMK A01 T00370021  RH  089%=      5-min Rain = 0
KEN1 190042Z 34019G24KT 04/02 A2989 RMK A01 T00370021  RH  089%=      5-min Rain = 0
KEN1 190043Z 35021KT 04/02 A2989 RMK A01 T00370021  RH  089%=      5-min Rain = 0
KEN1 190044Z 35024G29KT 04/02 A2989 RMK A01 T00370021  RH  089%=      5-min Rain = 0
KEN1 190045Z 34024KT 04/02 A299 RMK A01 T00360020  RH  089%=      5-min Rain = 0
KEN1 190046Z 34021G26KT 04/02 A299 RMK A01 T00370020  RH  089%=      5-min Rain = 0
KEN1 190047Z 34021KT 04/02 A299 RMK A01 T00360020  RH  089%=      5-min Rain = 0
KEN1 190048Z 34018KT 04/02 A299 RMK A01 T00360021  RH  090%=      5-min Rain = 0
KEN1 190049Z 34021KT 04/02 A299 RMK A01 T00360021  RH  090%=      5-min Rain = 0
KEN1 190050Z 34020KT 04/02 A299 RMK A01 T00360021  RH  090%=      5-min Rain = 0
KEN1 190051Z 35019KT 04/02 A299 RMK A01 T00350021  RH  090%=      5-min Rain = 0
KEN1 190052Z 35021KT 04/02 A299 RMK A01 T00350021  RH  090%=      5-min Rain = 0
KEN1 190053Z 35021KT 04/02 A299 RMK A01 T00350020  RH  090%=      5-min Rain = 0
KEN1 190054Z 34020KT 04/02 A299 RMK A01 T00350020  RH  090%=      5-min Rain = 0
KEN1 190055Z 35019KT 04/02 A299 RMK A01 T00350020  RH  090%=      5-min Rain = 0
KEN1 190056Z 35017KT 04/02 A299 RMK A01 T00350021  RH  090%=      5-min Rain = 0
KEN1 190057Z 34023KT 04/02 A299 RMK A01 T00350021  RH  091%=      5-min Rain = 0
KEN1 190058Z 35024KT 04/02 A2991 RMK A01 T00350020  RH  090%=      5-min Rain = 0
KEN1 190059Z 35021KT 04/02 A2991 RMK A01 T00350019  RH  090%=      5-min Rain = 0
KEN1 190100Z 35019KT 04/02 A2991 RMK A01 T00350020  RH  090%=      5-min Rain = 0
KEN1 190101Z 35020KT 04/02 A2991 RMK A01 T00350020  RH  090%=      5-min Rain = 0
KEN1 190102Z 35019KT 04/02 A2991 RMK A01 T00350020  RH  090%=      5-min Rain = 0
KEN1 190103Z 35021G26KT 04/02 A2991 RMK A01 T00350020  RH  090%=      5-min Rain = 0
KEN1 190104Z 35019G25KT 03/02 A2991 RMK A01 T00340020  RH  090%=      5-min Rain = 0
KEN1 190105Z 35021KT 03/02 A2991 RMK A01 T00340020  RH  090%=      5-min Rain = 0
KEN1 190106Z 35017KT 03/02 A2991 RMK A01 T00340019  RH  090%=      5-min Rain = 0
KEN1 190107Z 35022KT 03/02 A2991 RMK A01 T00340020  RH  090%=      5-min Rain = 0
KEN1 190108Z 35022KT 03/02 A2991 RMK A01 T00340019  RH  090%=      5-min Rain = 0
KEN1 190109Z 35022KT 04/02 A2991 RMK A01 T00350018  RH  089%=      5-min Rain = 0
KEN1 190110Z 35017KT 03/02 A2992 RMK A01 T00340018  RH  089%=      5-min Rain = 0
KEN1 190111Z 35020KT 03/02 A2992 RMK A01 T00340020  RH  090%=      5-min Rain = 0
KEN1 190112Z 36020KT 03/02 A2992 RMK A01 T00340020  RH  090%=      5-min Rain = 0
KEN1 190113Z 35020KT 03/02 A2992 RMK A01 T00340020  RH  090%=      5-min Rain = 0.01
KEN1 190114Z 34022KT 03/02 A2992 RMK A01 T00340020  RH  091%=      5-min Rain = 0
KEN1 190115Z 35020G25KT 03/02 A2992 RMK A01 T00340020  RH  090%=      5-min Rain = 0
KEN1 190116Z 35021KT 03/02 A2992 RMK A01 T00340020  RH  091%=      5-min Rain = 0
KEN1 190117Z 35017G23KT 03/02 A2993 RMK A01 T00340020  RH  091%=      5-min Rain = 0
KEN1 190118Z 35020G25KT 03/02 A2992 RMK A01 T00340020  RH  091%=      5-min Rain = 0
KEN1 190119Z 35021KT 03/02 A2993 RMK A01 T00330020  RH  091%=      5-min Rain = 0
KEN1 190120Z 35021KT 03/02 A2993 RMK A01 T00330020  RH  091%=      5-min Rain = 0
KEN1 190121Z 36022KT 03/02 A2993 RMK A01 T00330019  RH  090%=      5-min Rain = 0
KEN1 190122Z 35020KT 03/02 A2993 RMK A01 T00340019  RH  090%=      5-min Rain = 0
KEN1 190123Z 36018KT 03/02 A2993 RMK A01 T00330019  RH  090%=      5-min Rain = 0
KEN1 190124Z 35020KT 03/02 A2993 RMK A01 T00340020  RH  091%=      5-min Rain = 0
KEN1 190125Z 35020KT 03/02 A2993 RMK A01 T00330019  RH  091%=      5-min Rain = 0
KEN1 190126Z 35020KT 03/02 A2993 RMK A01 T00330019  RH  090%=      5-min Rain = 0
KEN1 190127Z 36018G23KT 03/02 A2993 RMK A01 T00330018  RH  090%=      5-min Rain = 0
KEN1 190128Z 36019KT 03/02 A2993 RMK A01 T00330019  RH  090%=      5-min Rain = 0
KEN1 190129Z 36019KT 03/02 A2993 RMK A01 T00330018  RH  090%=      5-min Rain = 0
KEN1 190130Z 35018KT 03/02 A2993 RMK A01 T00330019  RH  090%=      5-min Rain = 0
KEN1 190131Z 36017KT 03/02 A2994 RMK A01 T00330019  RH  091%=      5-min Rain = 0
KEN1 190132Z 35017KT 03/02 A2994 RMK A01 T00330020  RH  091%=      5-min Rain = 0
KEN1 190133Z 35016KT 03/02 A2994 RMK A01 T00330020  RH  091%=      5-min Rain = 0
KEN1 190134Z 36017KT 03/02 A2994 RMK A01 T00330020  RH  091%=      5-min Rain = 0
KEN1 190135Z 35016KT 03/02 A2994 RMK A01 T00330020  RH  091%=      5-min Rain = 0
KEN1 190136Z 35016KT 03/02 A2994 RMK A01 T00330020  RH  091%=      5-min Rain = 0
KEN1 190137Z 35014KT 03/02 A2994 RMK A01 T00330020  RH  092%=      5-min Rain = 0
KEN1 190138Z 35014KT 03/02 A2994 RMK A01 T00320020  RH  092%=      5-min Rain = 0
KEN1 190139Z 35015KT 03/02 A2994 RMK A01 T00330021  RH  092%=      5-min Rain = 0
KEN1 190140Z 35015KT 03/02 A2994 RMK A01 T00330021  RH  092%=      5-min Rain = 0
KEN1 190141Z 35014KT 03/02 A2995 RMK A01 T00320020  RH  092%=      5-min Rain = 0
KEN1 190142Z 35013KT 03/02 A2995 RMK A01 T00330020  RH  092%=      5-min Rain = 0
KEN1 190143Z 35013KT 03/02 A2995 RMK A01 T00330021  RH  092%=      5-min Rain = 0
KEN1 190144Z 35012KT 03/02 A2995 RMK A01 T00330021  RH  092%=      5-min Rain = 0
KEN1 190145Z 35012KT 03/02 A2995 RMK A01 T00320021  RH  092%=      5-min Rain = 0
KEN1 190146Z 35013KT 03/02 A2995 RMK A01 T00330022  RH  093%=      5-min Rain = 0
KEN1 190147Z 35012KT 03/02 A2995 RMK A01 T00320022  RH  093%=      5-min Rain = 0
KEN1 190148Z 35012KT 03/02 A2995 RMK A01 T00330022  RH  093%=      5-min Rain = 0
KEN1 190149Z 34012KT 03/02 A2995 RMK A01 T00330022  RH  093%=      5-min Rain = 0
KEN1 190150Z 35014KT 03/02 A2995 RMK A01 T00330022  RH  093%=      5-min Rain = 0
KEN1 190151Z 35012KT 03/02 A2996 RMK A01 T00330022  RH  093%=      5-min Rain = 0
KEN1 190152Z 35011KT 03/02 A2996 RMK A01 T00330022  RH  093%=      5-min Rain = 0.01
KEN1 190153Z 35011KT 03/02 A2996 RMK A01 T00330023  RH  093%=      5-min Rain = 0
KEN1 190154Z 35011KT 03/02 A2996 RMK A01 T00330023  RH  093%=      5-min Rain = 0
KEN1 190155Z 35013KT 03/02 A2996 RMK A01 T00330022  RH  093%=      5-min Rain = 0
KEN1 190156Z 35012KT 03/02 A2996 RMK A01 T00330022  RH  093%=      5-min Rain = 0
KEN1 190157Z 36011KT 03/02 A2996 RMK A01 T00330022  RH  093%=      5-min Rain = 0
KEN1 190158Z 35012KT 03/02 A2996 RMK A01 T00330023  RH  093%=      5-min Rain = 0
KEN1 190159Z 36011KT 03/02 A2997 RMK A01 T00330023  RH  093%=      5-min Rain = 0
KEN1 190200Z 35013KT 03/02 A2997 RMK A01 T00330023  RH  093%=      5-min Rain = 0
KEN1 190201Z 35013KT 03/02 A2997 RMK A01 T00330023  RH  093%=      5-min Rain = 0
KEN1 190202Z 35013KT 03/02 A2997 RMK A01 T00330022  RH  093%=      5-min Rain = 0
KEN1 190203Z 35016KT 03/02 A2997 RMK A01 T00330022  RH  093%=      5-min Rain = 0
KEN1 190204Z 35018KT 03/02 A2997 RMK A01 T00330022  RH  092%=      5-min Rain = 0.01
KEN1 190205Z 35015KT 03/02 A2997 RMK A01 T00330021  RH  092%=      5-min Rain = 0
KEN1 190206Z 35014KT 03/02 A2997 RMK A01 T00330021  RH  092%=      5-min Rain = 0
KEN1 190207Z 35014KT 03/02 A2997 RMK A01 T00340022  RH  092%=      5-min Rain = 0
KEN1 190208Z 36014KT 03/02 A2997 RMK A01 T00340022  RH  093%=      5-min Rain = 0
KEN1 190209Z 36016G21KT 03/02 A2998 RMK A01 T00330022  RH  092%=      5-min Rain = 0
KEN1 190210Z 00018G26KT 03/02 A2998 RMK A01 T00330021  RH  092%=      5-min Rain = 0.01
KEN1 190211Z 36025KT 03/02 A2998 RMK A01 T00330020  RH  091%=      5-min Rain = 0
KEN1 190212Z 36025KT 03/02 A2998 RMK A01 T00330018  RH  090%=      5-min Rain = 0
KEN1 190213Z 36020KT 03/02 A2998 RMK A01 T00330016  RH  089%=      5-min Rain = 0
KEN1 190214Z 01020KT 03/02 A2998 RMK A01 T00320017  RH  090%=      5-min Rain = 0
KEN1 190215Z 01019G24KT 03/02 A2998 RMK A01 T00320017  RH  090%=      5-min Rain = 0
KEN1 190216Z 01023KT 03/02 A2999 RMK A01 T00310016  RH  090%=      5-min Rain = 0
KEN1 190217Z 02021G26KT 03/01 A2999 RMK A01 T00300014  RH  089%=      5-min Rain = 0
KEN1 190218Z 01023G29KT 03/01 A2999 RMK A01 T00280013  RH  090%=      5-min Rain = 0
KEN1 190219Z 01021G26KT 03/01 A2999 RMK A01 T00270013  RH  090%=      5-min Rain = 0
KEN1 190220Z 01021G26KT 03/01 A2999 RMK A01 T00270012  RH  090%=      5-min Rain = 0
KEN1 190221Z 01021G26KT 03/01 A2999 RMK A01 T00260011  RH  090%=      5-min Rain = 0
KEN1 190222Z 01021G26KT 03/01 A2999 RMK A01 T00270010  RH  089%=      5-min Rain = 0
KEN1 190223Z 01020KT 03/01 A2999 RMK A01 T00260009  RH  088%=      5-min Rain = 0
KEN1 190224Z 01020G27KT 03/01 A2999 RMK A01 T00260009  RH  088%=      5-min Rain = 0
KEN1 190225Z 01020G25KT 03/01 A2999 RMK A01 T00260008  RH  088%=      5-min Rain = 0
KEN1 190226Z 01019KT 03/01 A30 RMK A01 T00260008  RH  088%=      5-min Rain = 0
KEN1 190227Z 01019KT 03/01 A30 RMK A01 T00260008  RH  088%=      5-min Rain = 0
KEN1 190228Z 01018KT 03/01 A30 RMK A01 T00250008  RH  089%=      5-min Rain = 0
KEN1 190229Z 01019KT 03/01 A30 RMK A01 T00250008  RH  089%=      5-min Rain = 0
KEN1 190230Z 01017G22KT 03/01 A30 RMK A01 T00250008  RH  088%=      5-min Rain = 0
KEN1 190231Z 00019KT 03/01 A30 RMK A01 T00250007  RH  088%=      5-min Rain = 0
KEN1 190232Z 01021KT 03/01 A30 RMK A01 T00250007  RH  088%=      5-min Rain = 0
KEN1 190233Z 01022KT 03/01 A30 RMK A01 T00250006  RH  088%=      5-min Rain = 0
KEN1 190234Z 01022KT 03/01 A30 RMK A01 T00250006  RH  087%=      5-min Rain = 0
KEN1 190235Z 01021KT 03/01 A3001 RMK A01 T00250005  RH  087%=      5-min Rain = 0
KEN1 190236Z 01023KT 03/01 A3001 RMK A01 T00250005  RH  087%=      5-min Rain = 0
KEN1 190237Z 01024KT 03/00 A3001 RMK A01 T00250004  RH  086%=      5-min Rain = 0
KEN1 190238Z 01023KT 03/00 A3001 RMK A01 T00250003  RH  086%=      5-min Rain = 0
KEN1 190239Z 01019KT 02/00 A3001 RMK A01 T00240003  RH  086%=      5-min Rain = 0
KEN1 190240Z 01017KT 02/00 A3001 RMK A01 T00240003  RH  086%=      5-min Rain = 0
KEN1 190241Z 01018KT 02/00 A3001 RMK A01 T00230004  RH  087%=      5-min Rain = 0
KEN1 190242Z 01020KT 02/00 A3001 RMK A01 T00230004  RH  087%=      5-min Rain = 0
KEN1 190243Z 01018KT 02/00 A3001 RMK A01 T00230004  RH  087%=      5-min Rain = 0
KEN1 190244Z 01016KT 02/00 A3001 RMK A01 T00220004  RH  088%=      5-min Rain = 0
KEN1 190245Z 01018KT 02/00 A3001 RMK A01 T00220004  RH  088%=      5-min Rain = 0
KEN1 190246Z 01018KT 02/00 A3002 RMK A01 T00220004  RH  088%=      5-min Rain = 0
KEN1 190247Z 01014G19KT 02/01 A3002 RMK A01 T00220005  RH  088%=      5-min Rain = 0
KEN1 190248Z 01019KT 02/01 A3002 RMK A01 T00220005  RH  088%=      5-min Rain = 0
KEN1 190249Z 00015KT 02/00 A3002 RMK A01 T00220004  RH  088%=      5-min Rain = 0
KEN1 190250Z 00016KT 02/00 A3002 RMK A01 T00220004  RH  088%=      5-min Rain = 0
KEN1 190251Z 36016KT 02/01 A3002 RMK A01 T00220005  RH  089%=      5-min Rain = 0
KEN1 190252Z 01019G25KT 02/01 A3002 RMK A01 T00220005  RH  088%=      5-min Rain = 0
KEN1 190253Z 00019KT 02/00 A3002 RMK A01 T00220003  RH  088%=      5-min Rain = 0
KEN1 190254Z 36017KT 02/00 A3002 RMK A01 T00220003  RH  087%=      5-min Rain = 0
KEN1 190255Z 36016KT 02/00 A3002 RMK A01 T00220003  RH  087%=      5-min Rain = 0
KEN1 190256Z 35020KT 02/00 A3002 RMK A01 T00230003  RH  087%=      5-min Rain = 0
KEN1 190257Z 00020KT 02/00 A3002 RMK A01 T00230003  RH  087%=      5-min Rain = 0
KEN1 190258Z 35018KT 02/00 A3003 RMK A01 T00230003  RH  086%=      5-min Rain = 0
KEN1 190259Z 35019G24KT 02/00 A3003 RMK A01 T00230003  RH  087%=      5-min Rain = 0
KEN1 190300Z 00021G27KT 02/00 A3003 RMK A01 T00230002  RH  086%=      5-min Rain = 0
KEN1 190301Z 35018KT 02/00 A3003 RMK A01 T00230002  RH  086%=      5-min Rain = 0
KEN1 190302Z 35020G26KT 02/00 A3003 RMK A01 T00230003  RH  086%=      5-min Rain = 0
KEN1 190303Z 35021KT 02/00 A3003 RMK A01 T00230002  RH  086%=      5-min Rain = 0
KEN1 190304Z 35020G27KT 02/00 A3003 RMK A01 T00240002  RH  086%=      5-min Rain = 0
KEN1 190305Z 35024G32KT 02/00 A3003 RMK A01 T00240001  RH  085%=      5-min Rain = 0
KEN1 190306Z 34028G35KT 02/M00 A3003 RMK A01 T00241001  RH  083%=      5-min Rain = 0
KEN1 190307Z 36029KT 02/M00 A3003 RMK A01 T00241002  RH  083%=      5-min Rain = 0
KEN1 190308Z 35026KT 02/M00 A3003 RMK A01 T00241002  RH  082%=      5-min Rain = 0
KEN1 190309Z 36025G32KT 02/M00 A3004 RMK A01 T00241003  RH  083%=      5-min Rain = 0
KEN1 190310Z 35024KT 02/M00 A3004 RMK A01 T00241002  RH  083%=      5-min Rain = 0
KEN1 190311Z 35026KT 02/M00 A3004 RMK A01 T00231002  RH  083%=      5-min Rain = 0
KEN1 190312Z 36027KT 02/M00 A3004 RMK A01 T00231003  RH  083%=      5-min Rain = 0
KEN1 190313Z 00021KT 02/M00 A3004 RMK A01 T00231004  RH  083%=      5-min Rain = 0
KEN1 190314Z 35017KT 02/M00 A3004 RMK A01 T00221002  RH  084%=      5-min Rain = 0
KEN1 190315Z 36020G25KT 02/00 A3004 RMK A01 T002200-0  RH  085%=      5-min Rain = 0
KEN1 190316Z 36024G31KT 02/M00 A3004 RMK A01 T00221001  RH  085%=      5-min Rain = 0
KEN1 190317Z 36022KT 02/M00 A3004 RMK A01 T00221003  RH  084%=      5-min Rain = 0
KEN1 190318Z 36025G31KT 02/M00 A3004 RMK A01 T00221003  RH  083%=      5-min Rain = 0
KEN1 190319Z 35029G36KT 02/M01 A3004 RMK A01 T00221006  RH  082%=      5-min Rain = 0
KEN1 190320Z 35026KT 02/M01 A3004 RMK A01 T00221007  RH  081%=      5-min Rain = 0
KEN1 190321Z 00026G32KT 02/M01 A3004 RMK A01 T00221007  RH  081%=      5-min Rain = 0
KEN1 190322Z 36024G30KT 02/M01 A3004 RMK A01 T00211008  RH  081%=      5-min Rain = 0
KEN1 190323Z 36026G35KT 02/M01 A3004 RMK A01 T00201007  RH  082%=      5-min Rain = 0
KEN1 190324Z 01026G32KT 02/M01 A3004 RMK A01 T00201007  RH  082%=      5-min Rain = 0
KEN1 190325Z 00025G33KT 02/M01 A3004 RMK A01 T00201007  RH  083%=      5-min Rain = 0
KEN1 190326Z 00026G32KT 02/M01 A3005 RMK A01 T00191008  RH  082%=      5-min Rain = 0
KEN1 190327Z 36024G29KT 02/M01 A3005 RMK A01 T00191008  RH  082%=      5-min Rain = 0
KEN1 190328Z 36029G34KT 02/M01 A3005 RMK A01 T00191007  RH  082%=      5-min Rain = 0
KEN1 190329Z 00024G30KT 02/M01 A3005 RMK A01 T00191009  RH  082%=      5-min Rain = 0
KEN1 190330Z 00026KT 02/M01 A3005 RMK A01 T00191009  RH  082%=      5-min Rain = 0
KEN1 190331Z 01021G26KT 02/M01 A3005 RMK A01 T00191008  RH  082%=      5-min Rain = 0
KEN1 190332Z 00021KT 02/M01 A3005 RMK A01 T00181007  RH  083%=      5-min Rain = 0
KEN1 190333Z 36019KT 02/M01 A3005 RMK A01 T00181006  RH  084%=      5-min Rain = 0
KEN1 190334Z 00021G26KT 02/M01 A3005 RMK A01 T00181006  RH  084%=      5-min Rain = 0
KEN1 190335Z 36022G27KT 02/M01 A3005 RMK A01 T00181006  RH  084%=      5-min Rain = 0
KEN1 190336Z 00022G29KT 02/M01 A3005 RMK A01 T00181007  RH  084%=      5-min Rain = 0
KEN1 190337Z 00022KT 02/M01 A3006 RMK A01 T00181007  RH  084%=      5-min Rain = 0
KEN1 190338Z 36022KT 02/M01 A3006 RMK A01 T00181007  RH  084%=      5-min Rain = 0
KEN1 190339Z 36023KT 02/M01 A3006 RMK A01 T00181006  RH  084%=      5-min Rain = 0
KEN1 190340Z 00017KT 02/M01 A3006 RMK A01 T00191006  RH  084%=      5-min Rain = 0
KEN1 190341Z 36016KT 02/M00 A3006 RMK A01 T00181004  RH  085%=      5-min Rain = 0
KEN1 190342Z 00019KT 02/M00 A3006 RMK A01 T00181004  RH  085%=      5-min Rain = 0
KEN1 190343Z 00022G27KT 02/M01 A3006 RMK A01 T00181005  RH  085%=      5-min Rain = 0
KEN1 190344Z 36021KT 02/M01 A3006 RMK A01 T00181006  RH  084%=      5-min Rain = 0
KEN1 190345Z 00020KT 02/M01 A3006 RMK A01 T00181006  RH  084%=      5-min Rain = 0
KEN1 190346Z 00017KT 02/M01 A3006 RMK A01 T00181005  RH  084%=      5-min Rain = 0
KEN1 190347Z 36016G21KT 02/M01 A3007 RMK A01 T00181005  RH  085%=      5-min Rain = 0
KEN1 190348Z 36018KT 02/M00 A3007 RMK A01 T00181004  RH  086%=      5-min Rain = 0
KEN1 190349Z 36017KT 02/M00 A3007 RMK A01 T00181004  RH  085%=      5-min Rain = 0
KEN1 190350Z 36016KT 02/M00 A3007 RMK A01 T00181004  RH  086%=      5-min Rain = 0
KEN1 190351Z 36017KT 02/M00 A3007 RMK A01 T00181003  RH  086%=      5-min Rain = 0
KEN1 190352Z 36017KT 02/M00 A3007 RMK A01 T00181004  RH  085%=      5-min Rain = 0
KEN1 190353Z 36016G22KT 02/M00 A3007 RMK A01 T00181004  RH  085%=      5-min Rain = 0
KEN1 190354Z 36018KT 02/M00 A3007 RMK A01 T00181004  RH  085%=      5-min Rain = 0
KEN1 190355Z 36017KT 02/M00 A3007 RMK A01 T00181004  RH  085%=      5-min Rain = 0
KEN1 190356Z 36018KT 02/M01 A3007 RMK A01 T00181005  RH  085%=      5-min Rain = 0
KEN1 190357Z 35018KT 02/M01 A3007 RMK A01 T00181005  RH  085%=      5-min Rain = 0
KEN1 190358Z 35014KT 02/M00 A3007 RMK A01 T00181004  RH  085%=      5-min Rain = 0
KEN1 190359Z 36015KT 02/M00 A3007 RMK A01 T00191003  RH  085%=      5-min Rain = 0
KEN1 190400Z 36015KT 02/M00 A3008 RMK A01 T00191003  RH  085%=      5-min Rain = 0
KEN1 190401Z 35016KT 02/M00 A3008 RMK A01 T00191003  RH  085%=      5-min Rain = 0
KEN1 190402Z 36017KT 02/M00 A3008 RMK A01 T00191004  RH  085%=      5-min Rain = 0
KEN1 190403Z 35014KT 02/M00 A3008 RMK A01 T00191004  RH  085%=      5-min Rain = 0
KEN1 190404Z 36022G27KT 02/M01 A3008 RMK A01 T00191005  RH  085%=      5-min Rain = 0
KEN1 190405Z 00019KT 02/M01 A3008 RMK A01 T00201006  RH  083%=      5-min Rain = 0
KEN1 190406Z 01024G29KT 02/M01 A3008 RMK A01 T00201007  RH  082%=      5-min Rain = 0
KEN1 190407Z 00021G27KT 02/M01 A3009 RMK A01 T00201008  RH  082%=      5-min Rain = 0
KEN1 190408Z 00022G27KT 02/M01 A3009 RMK A01 T00191008  RH  082%=      5-min Rain = 0
KEN1 190409Z 00026KT 02/M01 A3009 RMK A01 T00191009  RH  082%=      5-min Rain = 0
KEN1 190410Z 01024KT 02/M01 A3009 RMK A01 T00181012  RH  081%=      5-min Rain = 0
KEN1 190411Z 01023G29KT 02/M01 A3009 RMK A01 T00171012  RH  081%=      5-min Rain = 0
KEN1 190412Z 01027G35KT 02/M01 A3009 RMK A01 T00171013  RH  081%=      5-min Rain = 0
KEN1 190413Z 01028G34KT 02/M02 A3009 RMK A01 T00161015  RH  080%=      5-min Rain = 0
KEN1 190414Z 01023G29KT 02/M02 A3009 RMK A01 T00161015  RH  080%=      5-min Rain = 0
KEN1 190415Z 01025G32KT 02/M02 A3009 RMK A01 T00151015  RH  081%=      5-min Rain = 0
KEN1 190416Z 01026KT 01/M02 A3009 RMK A01 T00141015  RH  081%=      5-min Rain = 0
KEN1 190417Z 01025G30KT 01/M02 A3009 RMK A01 T00141016  RH  080%=      5-min Rain = 0
KEN1 190418Z 01021G26KT 01/M02 A301 RMK A01 T00141016  RH  081%=      5-min Rain = 0
KEN1 190419Z 01021KT 01/M02 A301 RMK A01 T00131015  RH  082%=      5-min Rain = 0
KEN1 190420Z 01023KT 01/M02 A301 RMK A01 T00131015  RH  082%=      5-min Rain = 0
KEN1 190421Z 00021KT 01/M02 A301 RMK A01 T00131016  RH  081%=      5-min Rain = 0
KEN1 190422Z 00019G25KT 01/M02 A301 RMK A01 T00121016  RH  082%=      5-min Rain = 0
KEN1 190423Z 00018KT 01/M02 A301 RMK A01 T00121016  RH  082%=      5-min Rain = 0
KEN1 190424Z 00017G22KT 01/M02 A301 RMK A01 T00121015  RH  082%=      5-min Rain = 0
KEN1 190425Z 00019KT 01/M02 A301 RMK A01 T00121015  RH  082%=      5-min Rain = 0
KEN1 190426Z 01020KT 01/M02 A301 RMK A01 T00121016  RH  082%=      5-min Rain = 0
KEN1 190427Z 00018KT 01/M02 A301 RMK A01 T00111017  RH  082%=      5-min Rain = 0
KEN1 190428Z 00017KT 01/M02 A301 RMK A01 T00121016  RH  082%=      5-min Rain = 0
KEN1 190429Z 00018KT 01/M02 A301 RMK A01 T00121015  RH  083%=      5-min Rain = 0
KEN1 190430Z 00019KT 01/M02 A301 RMK A01 T00111015  RH  083%=      5-min Rain = 0
KEN1 190431Z 00016G21KT 01/M02 A301 RMK A01 T00121015  RH  083%=      5-min Rain = 0
KEN1 190432Z 01019KT 01/M02 A301 RMK A01 T00111015  RH  083%=      5-min Rain = 0
KEN1 190433Z 00015KT 01/M02 A301 RMK A01 T00111016  RH  082%=      5-min Rain = 0
KEN1 190434Z 01018G23KT 01/M02 A3011 RMK A01 T00111015  RH  083%=      5-min Rain = 0
KEN1 190435Z 00017G22KT 01/M02 A301 RMK A01 T00111016  RH  082%=      5-min Rain = 0
KEN1 190436Z 00017KT 01/M02 A3011 RMK A01 T00111016  RH  082%=      5-min Rain = 0
KEN1 190437Z 00016KT 01/M02 A3011 RMK A01 T00111015  RH  083%=      5-min Rain = 0
KEN1 190438Z 00015KT 01/M02 A3011 RMK A01 T00111015  RH  083%=      5-min Rain = 0
KEN1 190439Z 36014KT 01/M01 A3011 RMK A01 T00111014  RH  083%=      5-min Rain = 0
KEN1 190440Z 00016KT 01/M01 A3011 RMK A01 T00111014  RH  083%=      5-min Rain = 0
KEN1 190441Z 00013KT 01/M02 A3011 RMK A01 T00111015  RH  083%=      5-min Rain = 0
KEN1 190442Z 00013KT 01/M02 A3011 RMK A01 T00101015  RH  083%=      5-min Rain = 0
KEN1 190443Z 36013KT 01/M01 A3011 RMK A01 T00101014  RH  084%=      5-min Rain = 0
KEN1 190444Z 36013KT 01/M01 A3011 RMK A01 T00101014  RH  084%=      5-min Rain = 0
KEN1 190445Z 36014KT 01/M01 A3011 RMK A01 T00091014  RH  085%=      5-min Rain = 0
KEN1 190446Z 35013KT 01/M01 A3011 RMK A01 T00091014  RH  085%=      5-min Rain = 0
KEN1 190447Z 35014KT 01/M01 A3011 RMK A01 T00101013  RH  085%=      5-min Rain = 0
KEN1 190448Z 36014KT 01/M01 A3011 RMK A01 T00101013  RH  085%=      5-min Rain = 0
KEN1 190449Z 00015KT 01/M01 A3011 RMK A01 T00101013  RH  084%=      5-min Rain = 0
KEN1 190450Z 35013KT 01/M02 A3011 RMK A01 T00101015  RH  084%=      5-min Rain = 0
KEN1 190451Z 35013KT 01/M01 A3011 RMK A01 T00101014  RH  084%=      5-min Rain = 0
KEN1 190452Z 35013KT 01/M01 A3011 RMK A01 T00101014  RH  084%=      5-min Rain = 0
KEN1 190453Z 35014KT 01/M01 A3011 RMK A01 T00101013  RH  084%=      5-min Rain = 0
KEN1 190454Z 35016KT 01/M01 A3012 RMK A01 T00101014  RH  084%=      5-min Rain = 0
KEN1 190455Z 35014KT 01/M02 A3012 RMK A01 T00101015  RH  084%=      5-min Rain = 0
KEN1 190456Z 35012KT 01/M01 A3012 RMK A01 T00101014  RH  084%=      5-min Rain = 0
KEN1 190457Z 36013KT 01/M01 A3012 RMK A01 T00101014  RH  084%=      5-min Rain = 0
KEN1 190458Z 35012KT 01/M01 A3012 RMK A01 T00101014  RH  084%=      5-min Rain = 0
KEN1 190459Z 35010KT 01/M01 A3012 RMK A01 T00101013  RH  085%=      5-min Rain = 0
KEN1 190500Z 34013KT 01/M01 A3012 RMK A01 T00101012  RH  085%=      5-min Rain = 0
KEN1 190501Z 35012KT 01/M01 A3012 RMK A01 T00091013  RH  085%=      5-min Rain = 0
KEN1 190502Z 35012KT 01/M01 A3012 RMK A01 T00091013  RH  085%=      5-min Rain = 0
KEN1 190503Z 34014KT 01/M01 A3012 RMK A01 T00091013  RH  085%=      5-min Rain = 0
KEN1 190504Z 35013KT 01/M01 A3012 RMK A01 T00091014  RH  085%=      5-min Rain = 0
KEN1 190505Z 35011KT 01/M01 A3013 RMK A01 T00091014  RH  085%=      5-min Rain = 0
KEN1 190506Z 35011KT 01/M01 A3013 RMK A01 T00091013  RH  085%=      5-min Rain = 0
KEN1 190507Z 34011KT 01/M01 A3013 RMK A01 T00091013  RH  085%=      5-min Rain = 0
KEN1 190508Z 34010KT 01/M01 A3013 RMK A01 T00091013  RH  085%=      5-min Rain = 0
KEN1 190509Z 34011KT 01/M01 A3013 RMK A01 T00091012  RH  086%=      5-min Rain = 0
KEN1 190510Z 34012KT 01/M01 A3013 RMK A01 T00091013  RH  086%=      5-min Rain = 0
KEN1 190511Z 34011KT 01/M01 A3013 RMK A01 T00091013  RH  086%=      5-min Rain = 0
KEN1 190512Z 34011KT 01/M01 A3013 RMK A01 T00091012  RH  086%=      5-min Rain = 0
KEN1 190513Z 34012KT 01/M01 A3013 RMK A01 T00091012  RH  086%=      5-min Rain = 0
KEN1 190514Z 34012KT 01/M01 A3013 RMK A01 T00091013  RH  085%=      5-min Rain = 0
KEN1 190515Z 34011KT 01/M01 A3013 RMK A01 T00091013  RH  085%=      5-min Rain = 0
KEN1 190516Z 34013KT 01/M01 A3014 RMK A01 T00091013  RH  085%=      5-min Rain = 0
KEN1 190517Z 34012KT 01/M01 A3014 RMK A01 T00091013  RH  085%=      5-min Rain = 0
KEN1 190518Z 34011KT 01/M01 A3014 RMK A01 T00091014  RH  085%=      5-min Rain = 0
KEN1 190519Z 34010KT 01/M01 A3014 RMK A01 T00091013  RH  085%=      5-min Rain = 0
KEN1 190520Z 34011KT 01/M01 A3014 RMK A01 T00091012  RH  085%=      5-min Rain = 0
KEN1 190521Z 34013KT 01/M01 A3014 RMK A01 T00091013  RH  085%=      5-min Rain = 0
KEN1 190522Z 34012KT 01/M01 A3014 RMK A01 T00101014  RH  085%=      5-min Rain = 0
KEN1 190523Z 34012KT 01/M01 A3014 RMK A01 T00101013  RH  085%=      5-min Rain = 0
KEN1 190524Z 34012KT 01/M01 A3014 RMK A01 T00101013  RH  085%=      5-min Rain = 0
KEN1 190525Z 34011KT 01/M01 A3014 RMK A01 T00101013  RH  085%=      5-min Rain = 0
KEN1 190526Z 35012KT 01/M01 A3014 RMK A01 T00101013  RH  085%=      5-min Rain = 0
KEN1 190527Z 34014KT 01/M01 A3014 RMK A01 T00101014  RH  084%=      5-min Rain = 0
KEN1 190528Z 34014KT 01/M02 A3014 RMK A01 T00111015  RH  083%=      5-min Rain = 0
KEN1 190529Z 34012KT 01/M02 A3014 RMK A01 T00121015  RH  082%=      5-min Rain = 0
KEN1 190530Z 35012KT 01/M02 A3014 RMK A01 T00111015  RH  082%=      5-min Rain = 0
KEN1 190531Z 34013KT 01/M01 A3014 RMK A01 T00121014  RH  083%=      5-min Rain = 0
KEN1 190532Z 34015KT 01/M02 A3014 RMK A01 T00121015  RH  083%=      5-min Rain = 0
KEN1 190533Z 35017KT 01/M02 A3014 RMK A01 T00121017  RH  081%=      5-min Rain = 0
KEN1 190534Z 34015KT 01/M02 A3014 RMK A01 T00121018  RH  080%=      5-min Rain = 0
KEN1 190535Z 34015KT 01/M02 A3015 RMK A01 T00121018  RH  080%=      5-min Rain = 0
KEN1 190536Z 34016KT 01/M02 A3015 RMK A01 T00131018  RH  080%=      5-min Rain = 0
KEN1 190537Z 34016KT 01/M02 A3015 RMK A01 T00121019  RH  080%=      5-min Rain = 0
KEN1 190538Z 34018KT 01/M02 A3015 RMK A01 T00121019  RH  079%=      5-min Rain = 0
KEN1 190539Z 34014KT 01/M02 A3015 RMK A01 T00121021  RH  079%=      5-min Rain = 0
KEN1 190540Z 34015KT 01/M02 A3015 RMK A01 T00121020  RH  079%=      5-min Rain = 0
KEN1 190541Z 34017KT 01/M02 A3015 RMK A01 T00121020  RH  079%=      5-min Rain = 0
KEN1 190542Z 34015KT 01/M02 A3015 RMK A01 T00121021  RH  079%=      5-min Rain = 0
KEN1 190543Z 34013KT 01/M02 A3015 RMK A01 T00121020  RH  079%=      5-min Rain = 0
KEN1 190544Z 34015KT 01/M02 A3015 RMK A01 T00111019  RH  080%=      5-min Rain = 0
KEN1 190545Z 34014KT 01/M02 A3015 RMK A01 T00111019  RH  080%=      5-min Rain = 0
KEN1 190546Z 34015KT 01/M02 A3015 RMK A01 T00111019  RH  080%=      5-min Rain = 0
KEN1 190547Z 34013KT 01/M02 A3015 RMK A01 T00111020  RH  080%=      5-min Rain = 0
KEN1 190548Z 34014KT 01/M02 A3015 RMK A01 T00111020  RH  080%=      5-min Rain = 0
KEN1 190549Z 34012KT 01/M02 A3016 RMK A01 T00101020  RH  080%=      5-min Rain = 0.01
KEN1 190550Z 34015KT 01/M02 A3016 RMK A01 T00101019  RH  081%=      5-min Rain = 0
KEN1 190551Z 34013KT 01/M02 A3016 RMK A01 T00101020  RH  081%=      5-min Rain = 0
KEN1 190552Z 34014KT 01/M02 A3016 RMK A01 T00101019  RH  081%=      5-min Rain = 0
KEN1 190553Z 34014KT 01/M02 A3016 RMK A01 T00101020  RH  080%=      5-min Rain = 0
KEN1 190554Z 34012KT 01/M02 A3016 RMK A01 T00101020  RH  081%=      5-min Rain = 0
KEN1 190555Z 34011KT 01/M02 A3016 RMK A01 T00101019  RH  081%=      5-min Rain = 0
KEN1 190556Z 34013KT 01/M02 A3016 RMK A01 T00091019  RH  082%=      5-min Rain = 0
KEN1 190557Z 34012KT 01/M02 A3016 RMK A01 T00091019  RH  081%=      5-min Rain = 0
KEN1 190558Z 34012KT 01/M02 A3016 RMK A01 T00091020  RH  081%=      5-min Rain = 0
KEN1 190559Z 33012KT 01/M02 A3016 RMK A01 T00091019  RH  081%=      5-min Rain = 0

Page generated in 0.0785 seconds.